UAL978 KIAD-EGPH
Flight info
| Callsign | UAL978 |
|---|---|
| Flight time | 6h 40m |
| Altitude | 37000 |
| Route | JCOBY4 SWANN DCT BROSS Q419 RBV Q430 ACK DCT BRADD N175G PORTI/M082F370 NATT GISTI/N0471F370 DCT REVNU DCT MOLAK DCT ELBOB DCT DUFFY DCT GOTNA DCT BLACA P600 TUNSO |
| Aircraft | B763/H-SDE3FGHIM3RWXY/LB1 |
Departure
| Time | 2026-05-05 04:15 |
|---|---|
| Airport | Washington Dulles International Airport (KIAD) |
Arrival
| Time | 2026-05-05 10:55 |
|---|---|
| Airport | Edinburgh Airport (EGPH) |
| Time | Latitude | Longitude | Altitude | Speed | Heading |
|---|---|---|---|---|---|
| 2026-05-05 03:55 | 38.94596 | -77.45209 | 327 ft | 0 kts | 170° |
| 2026-05-05 04:04 | 38.94609 | -77.45212 | 327 ft | 2 kts | 170° |
| 2026-05-05 04:04 | 38.94626 | -77.45215 | 327 ft | 0 kts | 170° |
| 2026-05-05 04:04 | 38.94634 | -77.45217 | 327 ft | 2 kts | 170° |
| 2026-05-05 04:05 | 38.94652 | -77.45219 | 327 ft | 3 kts | 188° |
| 2026-05-05 04:05 | 38.94670 | -77.45210 | 327 ft | 3 kts | 212° |
| 2026-05-05 04:05 | 38.94685 | -77.45192 | 327 ft | 3 kts | 236° |
| 2026-05-05 04:05 | 38.94690 | -77.45182 | 327 ft | 0 kts | 246° |
| 2026-05-05 04:06 | 38.94689 | -77.45183 | 327 ft | 0 kts | 246° |
| 2026-05-05 04:06 | 38.94687 | -77.45188 | 327 ft | 1 kts | 246° |
| 2026-05-05 04:07 | 38.94677 | -77.45218 | 327 ft | 6 kts | 246° |
| 2026-05-05 04:07 | 38.94668 | -77.45280 | 327 ft | 8 kts | 270° |
| 2026-05-05 04:07 | 38.94669 | -77.45352 | 327 ft | 8 kts | 270° |
| 2026-05-05 04:07 | 38.94669 | -77.45429 | 327 ft | 9 kts | 270° |
| 2026-05-05 04:08 | 38.94670 | -77.45513 | 327 ft | 10 kts | 270° |
| 2026-05-05 04:08 | 38.94661 | -77.45595 | 327 ft | 9 kts | 233° |
| 2026-05-05 04:08 | 38.94609 | -77.45613 | 327 ft | 8 kts | 180° |
| 2026-05-05 04:08 | 38.94551 | -77.45614 | 327 ft | 9 kts | 180° |
| 2026-05-05 04:09 | 38.94490 | -77.45615 | 327 ft | 9 kts | 180° |
| 2026-05-05 04:09 | 38.94427 | -77.45616 | 327 ft | 9 kts | 180° |
| 2026-05-05 04:09 | 38.94361 | -77.45617 | 327 ft | 10 kts | 180° |
| 2026-05-05 04:09 | 38.94291 | -77.45617 | 327 ft | 10 kts | 180° |
| 2026-05-05 04:10 | 38.94220 | -77.45618 | 327 ft | 10 kts | 180° |
| 2026-05-05 04:10 | 38.94146 | -77.45619 | 327 ft | 11 kts | 180° |
| 2026-05-05 04:10 | 38.94070 | -77.45620 | 327 ft | 11 kts | 180° |
| 2026-05-05 04:10 | 38.93992 | -77.45621 | 327 ft | 11 kts | 180° |
| 2026-05-05 04:11 | 38.93911 | -77.45622 | 327 ft | 12 kts | 180° |
| 2026-05-05 04:11 | 38.93828 | -77.45623 | 327 ft | 12 kts | 180° |
| 2026-05-05 04:11 | 38.93743 | -77.45624 | 327 ft | 12 kts | 180° |
| 2026-05-05 04:11 | 38.93686 | -77.45581 | 327 ft | 9 kts | 130° |
| 2026-05-05 04:12 | 38.93642 | -77.45516 | 327 ft | 10 kts | 137° |
| 2026-05-05 04:12 | 38.93583 | -77.45506 | 327 ft | 9 kts | 198° |
| 2026-05-05 04:12 | 38.93524 | -77.45533 | 327 ft | 9 kts | 201° |
| 2026-05-05 04:12 | 38.93462 | -77.45564 | 327 ft | 10 kts | 201° |
| 2026-05-05 04:13 | 38.93401 | -77.45600 | 327 ft | 10 kts | 217° |
| 2026-05-05 04:13 | 38.93384 | -77.45643 | 327 ft | 6 kts | 275° |
| 2026-05-05 04:13 | 38.93394 | -77.45685 | 327 ft | 3 kts | 290° |
| 2026-05-05 04:13 | 38.93396 | -77.45691 | 327 ft | 0 kts | 290° |
| 2026-05-05 04:14 | 38.93403 | -77.45715 | 327 ft | 14 kts | 290° |
| 2026-05-05 04:14 | 38.93451 | -77.45877 | 327 ft | 46 kts | 290° |
| 2026-05-05 04:14 | 38.93637 | -77.46511 | 327 ft | 104 kts | 290° |
| 2026-05-05 04:14 | 38.93950 | -77.47577 | 328 ft | 151 kts | 290° |
| 2026-05-05 04:15 | 38.94333 | -77.48889 | 645 ft | 157 kts | 290° |
| 2026-05-05 04:15 | 38.94731 | -77.50236 | 1090 ft | 165 kts | 289° |
| 2026-05-05 04:15 | 38.95165 | -77.51628 | 1611 ft | 171 kts | 289° |
| 2026-05-05 04:15 | 38.95635 | -77.53067 | 2139 ft | 176 kts | 288° |
| 2026-05-05 04:16 | 38.96171 | -77.54493 | 2669 ft | 185 kts | 293° |
| 2026-05-05 04:16 | 38.97168 | -77.55621 | 3258 ft | 200 kts | 327° |
| 2026-05-05 04:16 | 38.98563 | -77.55729 | 3862 ft | 209 kts | 7° |
| 2026-05-05 04:16 | 38.99801 | -77.54743 | 4437 ft | 210 kts | 41° |
| 2026-05-05 04:17 | 39.00753 | -77.53355 | 4973 ft | 209 kts | 48° |
| 2026-05-05 04:17 | 39.01703 | -77.51924 | 5481 ft | 212 kts | 47° |
| 2026-05-05 04:17 | 39.02691 | -77.50448 | 6007 ft | 223 kts | 46° |
| 2026-05-05 04:17 | 39.03732 | -77.48879 | 6556 ft | 241 kts | 46° |
| 2026-05-05 04:18 | 39.04876 | -77.47150 | 7099 ft | 269 kts | 46° |
| 2026-05-05 04:18 | 39.06157 | -77.45221 | 7771 ft | 294 kts | 47° |
| 2026-05-05 04:18 | 39.07525 | -77.43167 | 8425 ft | 315 kts | 46° |
| 2026-05-05 04:18 | 39.08980 | -77.40982 | 9164 ft | 324 kts | 46° |
| 2026-05-05 04:19 | 39.10460 | -77.38765 | 9894 ft | 332 kts | 46° |
| 2026-05-05 04:19 | 39.11983 | -77.36496 | 10577 ft | 341 kts | 45° |
| 2026-05-05 04:19 | 39.13527 | -77.34107 | 11262 ft | 352 kts | 49° |
| 2026-05-05 04:19 | 39.14694 | -77.31269 | 11935 ft | 365 kts | 69° |
| 2026-05-05 04:20 | 39.15111 | -77.28013 | 12634 ft | 373 kts | 85° |
| 2026-05-05 04:20 | 39.15042 | -77.24664 | 13299 ft | 380 kts | 95° |
| 2026-05-05 04:20 | 39.14690 | -77.21273 | 13937 ft | 386 kts | 99° |
| 2026-05-05 04:20 | 39.14204 | -77.17832 | 14578 ft | 391 kts | 102° |
| 2026-05-05 04:21 | 39.13643 | -77.14381 | 15212 ft | 395 kts | 103° |
| 2026-05-05 04:21 | 39.13042 | -77.10916 | 15839 ft | 398 kts | 103° |
| 2026-05-05 04:21 | 39.12411 | -77.07463 | 16462 ft | 400 kts | 104° |
| 2026-05-05 04:21 | 39.11808 | -77.03969 | 17086 ft | 402 kts | 101° |
| 2026-05-05 04:22 | 39.11481 | -77.00374 | 17720 ft | 403 kts | 95° |
| 2026-05-05 04:22 | 39.11362 | -76.96779 | 18351 ft | 403 kts | 91° |
| 2026-05-05 04:22 | 39.11346 | -76.93161 | 18981 ft | 403 kts | 90° |
| 2026-05-05 04:22 | 39.11381 | -76.89566 | 19604 ft | 404 kts | 89° |
| 2026-05-05 04:23 | 39.11441 | -76.85913 | 20236 ft | 406 kts | 89° |
| 2026-05-05 04:23 | 39.11512 | -76.82301 | 20855 ft | 410 kts | 89° |
| 2026-05-05 04:23 | 39.11586 | -76.78591 | 21487 ft | 413 kts | 89° |
| 2026-05-05 04:23 | 39.11641 | -76.74918 | 22108 ft | 416 kts | 89° |
| 2026-05-05 04:24 | 39.11686 | -76.71178 | 22729 ft | 418 kts | 89° |
| 2026-05-05 04:24 | 39.11712 | -76.67428 | 23217 ft | 423 kts | 89° |
| 2026-05-05 04:24 | 39.11743 | -76.63577 | 23661 ft | 429 kts | 89° |
| 2026-05-05 04:25 | 39.11920 | -76.55870 | 24516 ft | 438 kts | 86° |
| 2026-05-05 04:25 | 39.12178 | -76.51932 | 24951 ft | 441 kts | 84° |
| 2026-05-05 04:25 | 39.12504 | -76.47976 | 25383 ft | 443 kts | 83° |
| 2026-05-05 04:25 | 39.12862 | -76.44037 | 25808 ft | 445 kts | 82° |
| 2026-05-05 04:26 | 39.13252 | -76.40092 | 26205 ft | 448 kts | 82° |
| 2026-05-05 04:26 | 39.13672 | -76.36093 | 26587 ft | 449 kts | 81° |
| 2026-05-05 04:26 | 39.14101 | -76.32116 | 26962 ft | 451 kts | 81° |
| 2026-05-05 04:26 | 39.14542 | -76.28083 | 27341 ft | 452 kts | 81° |
| 2026-05-05 04:27 | 39.14978 | -76.24098 | 27714 ft | 452 kts | 81° |
| 2026-05-05 04:27 | 39.15422 | -76.20053 | 28092 ft | 452 kts | 81° |
| 2026-05-05 04:27 | 39.15864 | -76.16047 | 28466 ft | 452 kts | 81° |
| 2026-05-05 04:27 | 39.16324 | -76.12060 | 28838 ft | 451 kts | 80° |
| 2026-05-05 04:28 | 39.16796 | -76.08080 | 29158 ft | 452 kts | 80° |
| 2026-05-05 04:28 | 39.17280 | -76.04051 | 29423 ft | 454 kts | 80° |
| 2026-05-05 04:28 | 39.17762 | -76.00057 | 29674 ft | 455 kts | 80° |
| 2026-05-05 04:28 | 39.18238 | -75.96005 | 29927 ft | 456 kts | 80° |
| 2026-05-05 04:29 | 39.18940 | -75.92013 | 30179 ft | 454 kts | 69° |
| 2026-05-05 04:29 | 39.20343 | -75.88423 | 30439 ft | 450 kts | 55° |
| 2026-05-05 04:29 | 39.22228 | -75.85213 | 30705 ft | 448 kts | 47° |
| 2026-05-05 04:29 | 39.24338 | -75.82295 | 30964 ft | 446 kts | 43° |
| 2026-05-05 04:30 | 39.26604 | -75.79502 | 31059 ft | 450 kts | 40° |
| 2026-05-05 04:30 | 39.31386 | -75.74135 | 31003 ft | 462 kts | 38° |
| 2026-05-05 04:31 | 39.36382 | -75.68792 | 30986 ft | 471 kts | 37° |
| 2026-05-05 04:31 | 39.41466 | -75.63405 | 30984 ft | 477 kts | 37° |
| 2026-05-05 04:32 | 39.46596 | -75.57900 | 30983 ft | 480 kts | 37° |
| 2026-05-05 04:32 | 39.51722 | -75.52381 | 30983 ft | 481 kts | 37° |
| 2026-05-05 04:33 | 39.56863 | -75.46796 | 31070 ft | 479 kts | 38° |
| 2026-05-05 04:33 | 39.59416 | -75.44018 | 31228 ft | 477 kts | 38° |
| 2026-05-05 04:33 | 39.61924 | -75.41270 | 31398 ft | 475 kts | 38° |
| 2026-05-05 04:33 | 39.64437 | -75.38476 | 31572 ft | 473 kts | 38° |
| 2026-05-05 04:34 | 39.66895 | -75.35689 | 31745 ft | 471 kts | 39° |
| 2026-05-05 04:34 | 39.69345 | -75.32895 | 31987 ft | 468 kts | 39° |
| 2026-05-05 04:34 | 39.71807 | -75.30108 | 32337 ft | 463 kts | 38° |
| 2026-05-05 04:34 | 39.74203 | -75.27395 | 32701 ft | 458 kts | 39° |
| 2026-05-05 04:35 | 39.76543 | -75.24539 | 32931 ft | 458 kts | 41° |
| 2026-05-05 04:35 | 39.80997 | -75.18549 | 32996 ft | 465 kts | 44° |
| 2026-05-05 04:36 | 39.85391 | -75.12292 | 32985 ft | 471 kts | 45° |
| 2026-05-05 04:36 | 39.89755 | -75.05885 | 32985 ft | 475 kts | 46° |
| 2026-05-05 04:37 | 39.94073 | -74.99366 | 32991 ft | 477 kts | 49° |
| 2026-05-05 04:37 | 39.98062 | -74.92420 | 32998 ft | 479 kts | 52° |
| 2026-05-05 04:38 | 40.01895 | -74.85309 | 32991 ft | 480 kts | 52° |
| 2026-05-05 04:38 | 40.05678 | -74.78124 | 32991 ft | 480 kts | 53° |
| 2026-05-05 04:39 | 40.09420 | -74.70856 | 32987 ft | 480 kts | 53° |
| 2026-05-05 04:39 | 40.13093 | -74.63606 | 33014 ft | 479 kts | 53° |
| 2026-05-05 04:39 | 40.14921 | -74.59982 | 33290 ft | 473 kts | 54° |
| 2026-05-05 04:40 | 40.16705 | -74.56435 | 33641 ft | 467 kts | 54° |
| 2026-05-05 04:40 | 40.18314 | -74.52759 | 34013 ft | 463 kts | 60° |
| 2026-05-05 04:40 | 40.19691 | -74.48958 | 34403 ft | 458 kts | 63° |
| 2026-05-05 04:40 | 40.20917 | -74.45175 | 34786 ft | 452 kts | 65° |
| 2026-05-05 04:41 | 40.22064 | -74.41357 | 34971 ft | 452 kts | 66° |
| 2026-05-05 04:41 | 40.24271 | -74.33581 | 35002 ft | 459 kts | 67° |
| 2026-05-05 04:42 | 40.26464 | -74.25657 | 35004 ft | 465 kts | 68° |
| 2026-05-05 04:42 | 40.28657 | -74.17631 | 35007 ft | 471 kts | 68° |
| 2026-05-05 04:43 | 40.30819 | -74.09445 | 35008 ft | 476 kts | 69° |
| 2026-05-05 04:43 | 40.32909 | -74.01192 | 35006 ft | 479 kts | 69° |
| 2026-05-05 04:44 | 40.34988 | -73.92864 | 35003 ft | 481 kts | 69° |
| 2026-05-05 04:44 | 40.37074 | -73.84531 | 35001 ft | 482 kts | 69° |
| 2026-05-05 04:45 | 40.39117 | -73.76617 | 34982 ft | 483 kts | 68° |
| 2026-05-05 04:45 | 40.41305 | -73.68272 | 34956 ft | 483 kts | 68° |
| 2026-05-05 04:46 | 40.43480 | -73.59954 | 34953 ft | 484 kts | 69° |
| 2026-05-05 04:46 | 40.45605 | -73.51578 | 34954 ft | 484 kts | 69° |
| 2026-05-05 04:47 | 40.47716 | -73.43156 | 35080 ft | 481 kts | 69° |
| 2026-05-05 04:47 | 40.48744 | -73.39033 | 35403 ft | 474 kts | 69° |
| 2026-05-05 04:47 | 40.49770 | -73.34917 | 35767 ft | 468 kts | 69° |
| 2026-05-05 04:47 | 40.50771 | -73.30904 | 36132 ft | 461 kts | 69° |
| 2026-05-05 04:48 | 40.51766 | -73.26919 | 36500 ft | 454 kts | 69° |
| 2026-05-05 04:48 | 40.52742 | -73.23017 | 36819 ft | 449 kts | 69° |
| 2026-05-05 04:48 | 40.53711 | -73.19156 | 36939 ft | 449 kts | 69° |
| 2026-05-05 04:49 | 40.55698 | -73.11292 | 36962 ft | 454 kts | 69° |
| 2026-05-05 04:49 | 40.57701 | -73.03398 | 36967 ft | 459 kts | 69° |
| 2026-05-05 04:50 | 40.59741 | -72.95383 | 36969 ft | 464 kts | 69° |
| 2026-05-05 04:50 | 40.61811 | -72.87277 | 36971 ft | 469 kts | 69° |
| 2026-05-05 04:51 | 40.63896 | -72.79091 | 36981 ft | 473 kts | 69° |
| 2026-05-05 04:51 | 40.65933 | -72.70866 | 36983 ft | 477 kts | 69° |
| 2026-05-05 04:52 | 40.67981 | -72.62525 | 36985 ft | 480 kts | 69° |
| 2026-05-05 04:52 | 40.70042 | -72.54127 | 36987 ft | 483 kts | 69° |
| 2026-05-05 04:53 | 40.72112 | -72.45692 | 36988 ft | 486 kts | 70° |
| 2026-05-05 04:53 | 40.74141 | -72.37175 | 36988 ft | 487 kts | 70° |
| 2026-05-05 04:54 | 40.76168 | -72.28568 | 36987 ft | 488 kts | 70° |
| 2026-05-05 04:54 | 40.78279 | -72.20078 | 36987 ft | 488 kts | 69° |
| 2026-05-05 04:55 | 40.80468 | -72.11620 | 36988 ft | 488 kts | 68° |
| 2026-05-05 04:55 | 40.82684 | -72.03165 | 36986 ft | 489 kts | 68° |
| 2026-05-05 04:56 | 40.84917 | -71.94683 | 36985 ft | 489 kts | 68° |
| 2026-05-05 04:56 | 40.87161 | -71.86152 | 36988 ft | 490 kts | 68° |
| 2026-05-05 04:57 | 40.89396 | -71.77652 | 36989 ft | 491 kts | 68° |
| 2026-05-05 04:57 | 40.91636 | -71.69129 | 36989 ft | 491 kts | 68° |
| 2026-05-05 04:58 | 40.93880 | -71.60608 | 36989 ft | 491 kts | 68° |
| 2026-05-05 04:58 | 40.96136 | -71.52053 | 36987 ft | 492 kts | 68° |
| 2026-05-05 04:59 | 40.98381 | -71.43532 | 36986 ft | 492 kts | 68° |
| 2026-05-05 04:59 | 41.00005 | -71.36910 | 36988 ft | 493 kts | 70° |
| 2026-05-05 05:00 | 41.02073 | -71.27943 | 36987 ft | 493 kts | 70° |
| 2026-05-05 05:00 | 41.04300 | -71.17734 | 36983 ft | 494 kts | 71° |
| 2026-05-05 05:01 | 41.06158 | -71.08992 | 36983 ft | 495 kts | 71° |
| 2026-05-05 05:01 | 41.07704 | -71.01682 | 36983 ft | 495 kts | 71° |
| 2026-05-05 05:02 | 41.09560 | -70.92906 | 36983 ft | 495 kts | 71° |
| 2026-05-05 05:02 | 41.11406 | -70.84200 | 36983 ft | 495 kts | 71° |
| 2026-05-05 05:03 | 41.13289 | -70.75325 | 36984 ft | 496 kts | 71° |
| 2026-05-05 05:03 | 41.15159 | -70.66515 | 36985 ft | 496 kts | 71° |
| 2026-05-05 05:04 | 41.16983 | -70.57658 | 36988 ft | 496 kts | 72° |
| 2026-05-05 05:04 | 41.18770 | -70.48808 | 36992 ft | 497 kts | 72° |
| 2026-05-05 05:05 | 41.20554 | -70.39942 | 36996 ft | 497 kts | 72° |
| 2026-05-05 05:05 | 41.22339 | -70.31062 | 37001 ft | 497 kts | 72° |
| 2026-05-05 05:06 | 41.24113 | -70.22244 | 37005 ft | 498 kts | 72° |
| 2026-05-05 05:06 | 41.25903 | -70.13365 | 37007 ft | 498 kts | 72° |
| 2026-05-05 05:07 | 41.28294 | -70.04811 | 37046 ft | 490 kts | 57° |
| 2026-05-05 05:07 | 41.32088 | -69.97332 | 37076 ft | 485 kts | 48° |
| 2026-05-05 05:08 | 41.36290 | -69.90336 | 37023 ft | 486 kts | 46° |
| 2026-05-05 05:08 | 41.40620 | -69.83454 | 37004 ft | 486 kts | 45° |
| 2026-05-05 05:09 | 41.44998 | -69.76595 | 36999 ft | 486 kts | 45° |
| 2026-05-05 05:09 | 41.49392 | -69.69744 | 36997 ft | 486 kts | 45° |
| 2026-05-05 05:10 | 41.53785 | -69.62907 | 36995 ft | 486 kts | 45° |
| 2026-05-05 05:10 | 41.58182 | -69.56072 | 36994 ft | 486 kts | 45° |
| 2026-05-05 05:11 | 41.62617 | -69.49184 | 36993 ft | 486 kts | 45° |
| 2026-05-05 05:11 | 41.67022 | -69.42346 | 36993 ft | 486 kts | 45° |
| 2026-05-05 05:12 | 41.71446 | -69.35484 | 36984 ft | 486 kts | 45° |
| 2026-05-05 05:12 | 41.75855 | -69.28645 | 36979 ft | 486 kts | 45° |
| 2026-05-05 05:13 | 41.80254 | -69.21795 | 36978 ft | 486 kts | 45° |
| 2026-05-05 05:13 | 41.84615 | -69.14878 | 36976 ft | 486 kts | 45° |
| 2026-05-05 05:14 | 41.88961 | -69.07932 | 36975 ft | 487 kts | 45° |
| 2026-05-05 05:14 | 41.93334 | -69.00928 | 36975 ft | 487 kts | 45° |
| 2026-05-05 05:15 | 41.97680 | -68.93955 | 36974 ft | 487 kts | 46° |
| 2026-05-05 05:15 | 42.01982 | -68.86940 | 36973 ft | 487 kts | 46° |
| 2026-05-05 05:16 | 42.06320 | -68.79894 | 36972 ft | 487 kts | 45° |
| 2026-05-05 05:16 | 42.10641 | -68.72904 | 36970 ft | 486 kts | 45° |
| 2026-05-05 05:17 | 42.14940 | -68.65920 | 36947 ft | 487 kts | 46° |
| 2026-05-05 05:17 | 42.19244 | -68.58811 | 36958 ft | 487 kts | 46° |
| 2026-05-05 05:18 | 42.23508 | -68.51793 | 36942 ft | 487 kts | 45° |
| 2026-05-05 05:18 | 42.27848 | -68.44733 | 36941 ft | 487 kts | 45° |
| 2026-05-05 05:19 | 42.32144 | -68.37655 | 36923 ft | 488 kts | 46° |
| 2026-05-05 05:19 | 42.36430 | -68.30575 | 36937 ft | 487 kts | 46° |
| 2026-05-05 05:20 | 42.40696 | -68.23483 | 36931 ft | 487 kts | 46° |
| 2026-05-05 05:20 | 42.44973 | -68.16359 | 36932 ft | 487 kts | 46° |
| 2026-05-05 05:21 | 42.49264 | -68.09210 | 36918 ft | 488 kts | 46° |
| 2026-05-05 05:21 | 42.53538 | -68.02087 | 36927 ft | 487 kts | 46° |
| 2026-05-05 05:22 | 42.57804 | -67.94984 | 36927 ft | 487 kts | 46° |
| 2026-05-05 05:22 | 42.62105 | -67.87841 | 36926 ft | 488 kts | 46° |
| 2026-05-05 05:23 | 42.66395 | -67.80722 | 36927 ft | 488 kts | 46° |
| 2026-05-05 05:23 | 42.70691 | -67.73606 | 36941 ft | 488 kts | 46° |
| 2026-05-05 05:24 | 42.75035 | -67.66418 | 36917 ft | 489 kts | 46° |
| 2026-05-05 05:24 | 42.79348 | -67.59284 | 36928 ft | 489 kts | 46° |
| 2026-05-05 05:25 | 42.83665 | -67.52146 | 36928 ft | 489 kts | 46° |
| 2026-05-05 05:25 | 42.87982 | -67.45015 | 36925 ft | 489 kts | 45° |
| 2026-05-05 05:26 | 42.92309 | -67.37877 | 36924 ft | 489 kts | 45° |
| 2026-05-05 05:26 | 42.96670 | -67.30692 | 36924 ft | 490 kts | 45° |
| 2026-05-05 05:27 | 43.01006 | -67.23556 | 36924 ft | 490 kts | 45° |
| 2026-05-05 05:27 | 43.07523 | -67.12765 | 36924 ft | 491 kts | 46° |
| 2026-05-05 05:28 | 43.11756 | -67.05472 | 36926 ft | 494 kts | 50° |
| 2026-05-05 05:28 | 43.15165 | -66.97254 | 36940 ft | 500 kts | 60° |
| 2026-05-05 05:29 | 43.18030 | -66.88549 | 36930 ft | 502 kts | 63° |
| 2026-05-05 05:29 | 43.20730 | -66.79738 | 36928 ft | 503 kts | 64° |
| 2026-05-05 05:30 | 43.23408 | -66.70834 | 36930 ft | 504 kts | 64° |
| 2026-05-05 05:30 | 43.26056 | -66.61988 | 36931 ft | 504 kts | 64° |
| 2026-05-05 05:31 | 43.28727 | -66.53059 | 36936 ft | 504 kts | 64° |
| 2026-05-05 05:31 | 43.31375 | -66.44163 | 36930 ft | 505 kts | 64° |
| 2026-05-05 05:32 | 43.33983 | -66.35203 | 36942 ft | 506 kts | 65° |
| 2026-05-05 05:32 | 43.36582 | -66.26184 | 36929 ft | 507 kts | 65° |
| 2026-05-05 05:33 | 43.39164 | -66.17190 | 36930 ft | 507 kts | 65° |
| 2026-05-05 05:33 | 43.41743 | -66.08217 | 36932 ft | 507 kts | 65° |
| 2026-05-05 05:34 | 43.44336 | -65.99202 | 36938 ft | 507 kts | 65° |
| 2026-05-05 05:34 | 43.46956 | -65.90134 | 36936 ft | 508 kts | 65° |
| 2026-05-05 05:35 | 43.49575 | -65.81112 | 36946 ft | 508 kts | 65° |
| 2026-05-05 05:35 | 43.52205 | -65.72086 | 36921 ft | 509 kts | 65° |
| 2026-05-05 05:36 | 43.54848 | -65.63050 | 36978 ft | 509 kts | 65° |
| 2026-05-05 05:36 | 43.57506 | -65.53955 | 36958 ft | 511 kts | 65° |
| 2026-05-05 05:37 | 43.60128 | -65.44876 | 36927 ft | 512 kts | 65° |
| 2026-05-05 05:37 | 43.62730 | -65.35724 | 36927 ft | 512 kts | 66° |
| 2026-05-05 05:38 | 43.65317 | -65.26602 | 36934 ft | 512 kts | 66° |
| 2026-05-05 05:38 | 43.67937 | -65.17403 | 36932 ft | 513 kts | 66° |
| 2026-05-05 05:39 | 43.70555 | -65.08270 | 36921 ft | 513 kts | 66° |
| 2026-05-05 05:39 | 43.73210 | -64.99063 | 36931 ft | 514 kts | 66° |
| 2026-05-05 05:40 | 43.75829 | -64.89884 | 36925 ft | 516 kts | 66° |
| 2026-05-05 05:40 | 43.78421 | -64.80642 | 36884 ft | 518 kts | 66° |
| 2026-05-05 05:41 | 43.81032 | -64.71305 | 36858 ft | 519 kts | 66° |
| 2026-05-05 05:41 | 43.83638 | -64.62003 | 36854 ft | 519 kts | 66° |
| 2026-05-05 05:42 | 43.86267 | -64.52643 | 36871 ft | 519 kts | 66° |
| 2026-05-05 05:42 | 43.88889 | -64.43333 | 36876 ft | 520 kts | 66° |
| 2026-05-05 05:43 | 43.91487 | -64.33988 | 36872 ft | 521 kts | 67° |
| 2026-05-05 05:43 | 43.94053 | -64.24543 | 36867 ft | 522 kts | 67° |
| 2026-05-05 05:44 | 43.96582 | -64.15172 | 36862 ft | 522 kts | 67° |
| 2026-05-05 05:44 | 43.99140 | -64.05682 | 36857 ft | 523 kts | 67° |
| 2026-05-05 05:45 | 44.01683 | -63.96250 | 36857 ft | 523 kts | 67° |
| 2026-05-05 05:45 | 44.04209 | -63.86797 | 36853 ft | 523 kts | 68° |
| 2026-05-05 05:46 | 44.06691 | -63.77273 | 36848 ft | 523 kts | 68° |
| 2026-05-05 05:46 | 44.09157 | -63.67738 | 36843 ft | 523 kts | 68° |
| 2026-05-05 05:47 | 44.11617 | -63.58239 | 36841 ft | 524 kts | 68° |
| 2026-05-05 05:47 | 44.14090 | -63.48717 | 36838 ft | 524 kts | 68° |
| 2026-05-05 05:48 | 44.16577 | -63.39188 | 36831 ft | 524 kts | 68° |
| 2026-05-05 05:48 | 44.19084 | -63.29626 | 36829 ft | 524 kts | 68° |
| 2026-05-05 05:49 | 44.21599 | -63.20069 | 36829 ft | 524 kts | 68° |
| 2026-05-05 05:49 | 44.24059 | -63.10529 | 36830 ft | 525 kts | 69° |
| 2026-05-05 05:50 | 44.26522 | -63.00892 | 36831 ft | 526 kts | 69° |
| 2026-05-05 05:50 | 44.28973 | -62.91320 | 36833 ft | 526 kts | 69° |
| 2026-05-05 05:51 | 44.31446 | -62.81720 | 36835 ft | 527 kts | 69° |
| 2026-05-05 05:51 | 44.33956 | -62.72043 | 36837 ft | 528 kts | 69° |
| 2026-05-05 05:52 | 44.36453 | -62.62397 | 36840 ft | 529 kts | 69° |
| 2026-05-05 05:52 | 44.38900 | -62.52727 | 36843 ft | 530 kts | 70° |
| 2026-05-05 05:53 | 44.41348 | -62.42997 | 36847 ft | 531 kts | 70° |
| 2026-05-05 05:53 | 44.43396 | -62.34861 | 36849 ft | 531 kts | 70° |
| 2026-05-05 05:54 | 44.45852 | -62.25131 | 36853 ft | 532 kts | 70° |
| 2026-05-05 05:54 | 44.48332 | -62.15327 | 36857 ft | 532 kts | 70° |
| 2026-05-05 05:55 | 44.50798 | -62.05587 | 36860 ft | 533 kts | 70° |
| 2026-05-05 05:55 | 44.53287 | -61.95760 | 36863 ft | 533 kts | 70° |
| 2026-05-05 05:56 | 44.55724 | -61.85984 | 36866 ft | 534 kts | 71° |
| 2026-05-05 05:56 | 44.58152 | -61.76151 | 36869 ft | 534 kts | 71° |
| 2026-05-05 05:57 | 44.60575 | -61.66318 | 36871 ft | 534 kts | 71° |
| 2026-05-05 05:57 | 44.63015 | -61.56410 | 36874 ft | 535 kts | 71° |
| 2026-05-05 05:58 | 44.65432 | -61.46604 | 36876 ft | 535 kts | 71° |
| 2026-05-05 05:58 | 44.67890 | -61.36675 | 36878 ft | 535 kts | 71° |
| 2026-05-05 05:59 | 44.70331 | -61.26834 | 36867 ft | 535 kts | 71° |
| 2026-05-05 05:59 | 44.72792 | -61.16924 | 36866 ft | 536 kts | 71° |
| 2026-05-05 06:00 | 44.75239 | -61.07066 | 36867 ft | 536 kts | 71° |
| 2026-05-05 06:00 | 44.77640 | -60.97140 | 36869 ft | 536 kts | 71° |
| 2026-05-05 06:01 | 44.80034 | -60.87148 | 36870 ft | 537 kts | 71° |
| 2026-05-05 06:01 | 44.82419 | -60.77201 | 36871 ft | 537 kts | 71° |
| 2026-05-05 06:02 | 44.84820 | -60.67206 | 36871 ft | 538 kts | 71° |
| 2026-05-05 06:02 | 44.87216 | -60.57269 | 36872 ft | 538 kts | 71° |
| 2026-05-05 06:03 | 44.89625 | -60.47295 | 36872 ft | 539 kts | 71° |
| 2026-05-05 06:03 | 44.92044 | -60.37304 | 36875 ft | 539 kts | 71° |
| 2026-05-05 06:04 | 44.94455 | -60.27255 | 36876 ft | 539 kts | 72° |
| 2026-05-05 06:04 | 44.96811 | -60.17192 | 36875 ft | 539 kts | 72° |
| 2026-05-05 06:05 | 44.99143 | -60.07150 | 36874 ft | 539 kts | 72° |
| 2026-05-05 06:05 | 45.01475 | -59.97111 | 36880 ft | 539 kts | 72° |
| 2026-05-05 06:06 | 45.03832 | -59.87045 | 36881 ft | 541 kts | 72° |
| 2026-05-05 06:06 | 45.06215 | -59.76911 | 36877 ft | 542 kts | 72° |
| 2026-05-05 06:07 | 45.08572 | -59.66787 | 36873 ft | 542 kts | 73° |
| 2026-05-05 06:07 | 45.10866 | -59.56662 | 36869 ft | 542 kts | 73° |
| 2026-05-05 06:08 | 45.13131 | -59.46532 | 36865 ft | 542 kts | 73° |
| 2026-05-05 06:08 | 45.15347 | -59.36296 | 36862 ft | 542 kts | 74° |
| 2026-05-05 06:09 | 45.17529 | -59.26069 | 36859 ft | 542 kts | 74° |
| 2026-05-05 06:09 | 45.19712 | -59.15808 | 36856 ft | 543 kts | 74° |
| 2026-05-05 06:10 | 45.21883 | -59.05640 | 36859 ft | 542 kts | 74° |
| 2026-05-05 06:10 | 45.24080 | -58.95363 | 36858 ft | 543 kts | 74° |
| 2026-05-05 06:11 | 45.26267 | -58.85142 | 36856 ft | 543 kts | 74° |
| 2026-05-05 06:11 | 45.28466 | -58.74869 | 36854 ft | 543 kts | 74° |
| 2026-05-05 06:12 | 45.30656 | -58.64606 | 36852 ft | 544 kts | 74° |
| 2026-05-05 06:12 | 45.32853 | -58.54301 | 36851 ft | 544 kts | 74° |
| 2026-05-05 06:13 | 45.35046 | -58.44038 | 36849 ft | 544 kts | 74° |
| 2026-05-05 06:13 | 45.37246 | -58.33737 | 36847 ft | 543 kts | 75° |
| 2026-05-05 06:14 | 45.39379 | -58.23447 | 36845 ft | 543 kts | 75° |
| 2026-05-05 06:14 | 45.41481 | -58.13116 | 36843 ft | 542 kts | 75° |
| 2026-05-05 06:15 | 45.43560 | -58.02841 | 36853 ft | 542 kts | 75° |
| 2026-05-05 06:15 | 45.45649 | -57.92498 | 36852 ft | 542 kts | 75° |
| 2026-05-05 06:16 | 45.47734 | -57.82203 | 36849 ft | 542 kts | 75° |
| 2026-05-05 06:16 | 45.49826 | -57.71859 | 36846 ft | 543 kts | 75° |
| 2026-05-05 06:17 | 45.51922 | -57.61490 | 36843 ft | 543 kts | 75° |
| 2026-05-05 06:17 | 45.54019 | -57.51129 | 36840 ft | 544 kts | 75° |
| 2026-05-05 06:18 | 45.56116 | -57.40776 | 36837 ft | 545 kts | 75° |
| 2026-05-05 06:18 | 45.58225 | -57.30377 | 36834 ft | 546 kts | 75° |
| 2026-05-05 06:19 | 45.60327 | -57.20016 | 36830 ft | 546 kts | 75° |
| 2026-05-05 06:19 | 45.62423 | -57.09556 | 36827 ft | 547 kts | 76° |
| 2026-05-05 06:20 | 45.64468 | -56.99100 | 36824 ft | 548 kts | 76° |
| 2026-05-05 06:20 | 45.66493 | -56.88606 | 36821 ft | 548 kts | 76° |
| 2026-05-05 06:21 | 45.68517 | -56.78087 | 36818 ft | 549 kts | 76° |
| 2026-05-05 06:21 | 45.70547 | -56.67522 | 36816 ft | 549 kts | 76° |
| 2026-05-05 06:22 | 45.72557 | -56.57051 | 36813 ft | 548 kts | 76° |
| 2026-05-05 06:22 | 45.74584 | -56.46482 | 36811 ft | 548 kts | 76° |
| 2026-05-05 06:23 | 45.76601 | -56.35952 | 36790 ft | 548 kts | 76° |
| 2026-05-05 06:23 | 45.78601 | -56.25492 | 36785 ft | 547 kts | 76° |
| 2026-05-05 06:24 | 45.80610 | -56.14966 | 36785 ft | 546 kts | 76° |
| 2026-05-05 06:24 | 45.82609 | -56.04485 | 36786 ft | 545 kts | 76° |
| 2026-05-05 06:25 | 45.84616 | -55.93949 | 36785 ft | 545 kts | 76° |
| 2026-05-05 06:25 | 45.86576 | -55.83495 | 36773 ft | 545 kts | 77° |
| 2026-05-05 06:26 | 45.88496 | -55.72927 | 36766 ft | 545 kts | 77° |
| 2026-05-05 06:26 | 45.90377 | -55.62457 | 36764 ft | 546 kts | 77° |
| 2026-05-05 06:27 | 45.93212 | -55.46562 | 36759 ft | 547 kts | 77° |
| 2026-05-05 06:28 | 45.95101 | -55.35966 | 36755 ft | 548 kts | 77° |
| 2026-05-05 06:28 | 45.96995 | -55.25314 | 36751 ft | 550 kts | 77° |
| 2026-05-05 06:29 | 45.98887 | -55.14667 | 36746 ft | 551 kts | 77° |
| 2026-05-05 06:29 | 46.00790 | -55.04020 | 36743 ft | 551 kts | 77° |
| 2026-05-05 06:30 | 46.02694 | -54.93380 | 36734 ft | 547 kts | 77° |
| 2026-05-05 06:30 | 46.04599 | -54.82739 | 36727 ft | 546 kts | 77° |
| 2026-05-05 06:31 | 46.06484 | -54.72159 | 36719 ft | 545 kts | 77° |
| 2026-05-05 06:31 | 46.08342 | -54.61604 | 36711 ft | 545 kts | 78° |
| 2026-05-05 06:32 | 46.10148 | -54.50977 | 36702 ft | 545 kts | 78° |
| 2026-05-05 06:32 | 46.11925 | -54.40375 | 36693 ft | 546 kts | 78° |
| 2026-05-05 06:33 | 46.13702 | -54.29729 | 36683 ft | 547 kts | 78° |
| 2026-05-05 06:33 | 46.15481 | -54.19015 | 36673 ft | 548 kts | 78° |
| 2026-05-05 06:34 | 46.17248 | -54.08347 | 36662 ft | 548 kts | 78° |
| 2026-05-05 06:34 | 46.19019 | -53.97649 | 36652 ft | 549 kts | 78° |
| 2026-05-05 06:35 | 46.20790 | -53.86953 | 36641 ft | 549 kts | 78° |
| 2026-05-05 06:35 | 46.22567 | -53.76207 | 36631 ft | 550 kts | 78° |
| 2026-05-05 06:36 | 46.24352 | -53.65428 | 36621 ft | 549 kts | 78° |
| 2026-05-05 06:36 | 46.26131 | -53.54718 | 36612 ft | 549 kts | 78° |
| 2026-05-05 06:37 | 46.27893 | -53.43990 | 36602 ft | 548 kts | 79° |
| 2026-05-05 06:37 | 46.29588 | -53.33288 | 36594 ft | 547 kts | 79° |
| 2026-05-05 06:38 | 46.31269 | -53.22550 | 36580 ft | 547 kts | 79° |
| 2026-05-05 06:38 | 46.32939 | -53.11822 | 36530 ft | 547 kts | 79° |
| 2026-05-05 06:39 | 46.34332 | -53.02859 | 36523 ft | 546 kts | 79° |
| 2026-05-05 06:39 | 46.35996 | -52.92135 | 36546 ft | 545 kts | 79° |
| 2026-05-05 06:40 | 46.37661 | -52.81438 | 36622 ft | 544 kts | 79° |
| 2026-05-05 06:40 | 46.39331 | -52.70750 | 36633 ft | 544 kts | 79° |
| 2026-05-05 06:41 | 46.41005 | -52.60052 | 36554 ft | 546 kts | 79° |
| 2026-05-05 06:41 | 46.42652 | -52.49303 | 36513 ft | 547 kts | 80° |
| 2026-05-05 06:42 | 46.44248 | -52.38526 | 36519 ft | 547 kts | 80° |
| 2026-05-05 06:42 | 46.45827 | -52.27747 | 36628 ft | 545 kts | 80° |
| 2026-05-05 06:43 | 46.47441 | -52.17037 | 36756 ft | 544 kts | 79° |
| 2026-05-05 06:43 | 46.49110 | -52.06314 | 36785 ft | 546 kts | 77° |
| 2026-05-05 06:44 | 46.51387 | -51.95734 | 36791 ft | 548 kts | 72° |
| 2026-05-05 06:44 | 46.53956 | -51.85296 | 36788 ft | 549 kts | 71° |
| 2026-05-05 06:45 | 46.56605 | -51.74915 | 36786 ft | 549 kts | 70° |
| 2026-05-05 06:45 | 46.59244 | -51.64518 | 36786 ft | 549 kts | 71° |
| 2026-05-05 06:46 | 46.61850 | -51.54098 | 36786 ft | 548 kts | 71° |
| 2026-05-05 06:46 | 46.64495 | -51.43703 | 36786 ft | 548 kts | 71° |
| 2026-05-05 06:47 | 46.67167 | -51.33377 | 36787 ft | 547 kts | 70° |
| 2026-05-05 06:47 | 46.69873 | -51.22971 | 36787 ft | 546 kts | 70° |
| 2026-05-05 06:48 | 46.72558 | -51.12666 | 36787 ft | 546 kts | 70° |
| 2026-05-05 06:48 | 46.75262 | -51.02314 | 36788 ft | 545 kts | 70° |
| 2026-05-05 06:49 | 46.77924 | -50.91956 | 36788 ft | 545 kts | 71° |
| 2026-05-05 06:49 | 46.80531 | -50.81594 | 36789 ft | 544 kts | 71° |
| 2026-05-05 06:50 | 46.83129 | -50.71223 | 36789 ft | 543 kts | 71° |
| 2026-05-05 06:50 | 46.85708 | -50.60909 | 36790 ft | 543 kts | 71° |
| 2026-05-05 06:51 | 46.88291 | -50.50530 | 36791 ft | 543 kts | 72° |
| 2026-05-05 06:51 | 46.90812 | -50.40123 | 36791 ft | 543 kts | 72° |
| 2026-05-05 06:52 | 46.93305 | -50.29724 | 36791 ft | 543 kts | 72° |
| 2026-05-05 06:52 | 46.95770 | -50.19307 | 36791 ft | 542 kts | 73° |
| 2026-05-05 06:53 | 46.98171 | -50.08866 | 36792 ft | 542 kts | 73° |
| 2026-05-05 06:53 | 47.00712 | -49.98468 | 36794 ft | 542 kts | 71° |
| 2026-05-05 06:54 | 47.03390 | -49.88078 | 36794 ft | 541 kts | 71° |
| 2026-05-05 06:54 | 47.06052 | -49.77747 | 36794 ft | 541 kts | 71° |
| 2026-05-05 06:55 | 47.08661 | -49.67451 | 36795 ft | 541 kts | 71° |
| 2026-05-05 06:55 | 47.11262 | -49.57133 | 36796 ft | 540 kts | 71° |
| 2026-05-05 06:56 | 47.13876 | -49.46768 | 36797 ft | 540 kts | 71° |
| 2026-05-05 06:56 | 47.16476 | -49.36447 | 36798 ft | 539 kts | 71° |
| 2026-05-05 06:57 | 47.19083 | -49.26092 | 36799 ft | 539 kts | 72° |
| 2026-05-05 06:57 | 47.21686 | -49.15760 | 36800 ft | 539 kts | 72° |
| 2026-05-05 06:58 | 47.24300 | -49.05399 | 36801 ft | 539 kts | 72° |
| 2026-05-05 06:58 | 47.26903 | -48.95072 | 36802 ft | 539 kts | 72° |
| 2026-05-05 06:59 | 47.29452 | -48.84729 | 36803 ft | 538 kts | 72° |
| 2026-05-05 06:59 | 47.31976 | -48.74339 | 36804 ft | 538 kts | 72° |
| 2026-05-05 07:00 | 47.34492 | -48.63949 | 36805 ft | 537 kts | 72° |
| 2026-05-05 07:00 | 47.36999 | -48.53577 | 36806 ft | 537 kts | 73° |
| 2026-05-05 07:01 | 47.39500 | -48.43256 | 36808 ft | 536 kts | 73° |
| 2026-05-05 07:01 | 47.42018 | -48.32903 | 36809 ft | 535 kts | 73° |
| 2026-05-05 07:02 | 47.44509 | -48.22539 | 36810 ft | 534 kts | 73° |
| 2026-05-05 07:02 | 47.46937 | -48.12226 | 36812 ft | 533 kts | 73° |
| 2026-05-05 07:03 | 47.49362 | -48.01839 | 36813 ft | 532 kts | 74° |
| 2026-05-05 07:03 | 47.51756 | -47.91579 | 36815 ft | 531 kts | 74° |
| 2026-05-05 07:04 | 47.54180 | -47.81215 | 36816 ft | 530 kts | 74° |
| 2026-05-05 07:04 | 47.56591 | -47.70914 | 36817 ft | 530 kts | 74° |
| 2026-05-05 07:05 | 47.59002 | -47.60620 | 36819 ft | 530 kts | 74° |
| 2026-05-05 07:05 | 47.61386 | -47.50250 | 36820 ft | 530 kts | 74° |
| 2026-05-05 07:06 | 47.63734 | -47.39878 | 36822 ft | 531 kts | 75° |
| 2026-05-05 07:06 | 47.66054 | -47.29478 | 36823 ft | 531 kts | 75° |
| 2026-05-05 07:07 | 47.68365 | -47.19077 | 36736 ft | 533 kts | 75° |
| 2026-05-05 07:07 | 47.70689 | -47.08610 | 36688 ft | 534 kts | 75° |
| 2026-05-05 07:08 | 47.73008 | -46.98189 | 36686 ft | 534 kts | 75° |
| 2026-05-05 07:08 | 47.75350 | -46.87706 | 36688 ft | 533 kts | 75° |
| 2026-05-05 07:09 | 47.77680 | -46.77236 | 36697 ft | 532 kts | 76° |
| 2026-05-05 07:09 | 47.79954 | -46.66774 | 36748 ft | 530 kts | 76° |
| 2026-05-05 07:10 | 47.82206 | -46.56359 | 36755 ft | 530 kts | 76° |
| 2026-05-05 07:10 | 47.84466 | -46.45954 | 36757 ft | 529 kts | 76° |
| 2026-05-05 07:11 | 47.86732 | -46.35560 | 36758 ft | 527 kts | 76° |
| 2026-05-05 07:11 | 47.88948 | -46.25144 | 36760 ft | 526 kts | 77° |
| 2026-05-05 07:12 | 47.91138 | -46.14725 | 36761 ft | 525 kts | 77° |
| 2026-05-05 07:12 | 47.93316 | -46.04360 | 36763 ft | 524 kts | 77° |
| 2026-05-05 07:13 | 47.95491 | -45.94025 | 36764 ft | 523 kts | 77° |
| 2026-05-05 07:13 | 47.97667 | -45.83682 | 36766 ft | 523 kts | 77° |
| 2026-05-05 07:14 | 47.99845 | -45.73311 | 36767 ft | 523 kts | 77° |
| 2026-05-05 07:14 | 48.01984 | -45.62993 | 36769 ft | 522 kts | 78° |
| 2026-05-05 07:15 | 48.04086 | -45.52573 | 36778 ft | 521 kts | 78° |
| 2026-05-05 07:15 | 48.06172 | -45.42199 | 36784 ft | 520 kts | 78° |
| 2026-05-05 07:16 | 48.08262 | -45.31838 | 36793 ft | 519 kts | 78° |
| 2026-05-05 07:16 | 48.10348 | -45.21556 | 36797 ft | 518 kts | 78° |
| 2026-05-05 07:17 | 48.12400 | -45.11223 | 36799 ft | 517 kts | 79° |
| 2026-05-05 07:17 | 48.14429 | -45.00907 | 36801 ft | 516 kts | 79° |
| 2026-05-05 07:18 | 48.16459 | -44.90611 | 36803 ft | 515 kts | 79° |
| 2026-05-05 07:18 | 48.18497 | -44.80348 | 36805 ft | 514 kts | 79° |
| 2026-05-05 07:19 | 48.20519 | -44.70074 | 36808 ft | 513 kts | 80° |
| 2026-05-05 07:19 | 48.22552 | -44.59808 | 36810 ft | 513 kts | 79° |
| 2026-05-05 07:20 | 48.24596 | -44.49598 | 36812 ft | 513 kts | 79° |
| 2026-05-05 07:20 | 48.26653 | -44.39369 | 36815 ft | 513 kts | 79° |
| 2026-05-05 07:21 | 48.28732 | -44.29064 | 36817 ft | 513 kts | 79° |
| 2026-05-05 07:21 | 48.30800 | -44.18815 | 36820 ft | 513 kts | 79° |
| 2026-05-05 07:22 | 48.32867 | -44.08560 | 36822 ft | 513 kts | 79° |
| 2026-05-05 07:22 | 48.34888 | -43.98315 | 36825 ft | 513 kts | 80° |
| 2026-05-05 07:23 | 48.36866 | -43.88022 | 36827 ft | 512 kts | 81° |
| 2026-05-05 07:23 | 48.38823 | -43.77743 | 36830 ft | 512 kts | 81° |
| 2026-05-05 07:24 | 48.40456 | -43.69114 | 36832 ft | 511 kts | 81° |
| 2026-05-05 07:24 | 48.42394 | -43.58842 | 36834 ft | 510 kts | 81° |
| 2026-05-05 07:25 | 48.44324 | -43.48592 | 36837 ft | 509 kts | 81° |
| 2026-05-05 07:25 | 48.46247 | -43.38355 | 36840 ft | 508 kts | 81° |
| 2026-05-05 07:26 | 48.48173 | -43.28093 | 36842 ft | 507 kts | 81° |
| 2026-05-05 07:26 | 48.50077 | -43.17900 | 36845 ft | 505 kts | 81° |
| 2026-05-05 07:27 | 48.51949 | -43.07706 | 36848 ft | 504 kts | 81° |
| 2026-05-05 07:27 | 48.53772 | -42.97498 | 36851 ft | 502 kts | 81° |
| 2026-05-05 07:28 | 48.55543 | -42.87317 | 36853 ft | 501 kts | 82° |
| 2026-05-05 07:28 | 48.57276 | -42.77194 | 36856 ft | 500 kts | 82° |
| 2026-05-05 07:29 | 48.59011 | -42.66959 | 36859 ft | 499 kts | 82° |
| 2026-05-05 07:29 | 48.60712 | -42.56841 | 36862 ft | 499 kts | 82° |
| 2026-05-05 07:30 | 48.62412 | -42.46666 | 36865 ft | 498 kts | 82° |
| 2026-05-05 07:30 | 48.64933 | -42.31458 | 36869 ft | 497 kts | 82° |
| 2026-05-05 07:31 | 48.66602 | -42.21345 | 36872 ft | 497 kts | 82° |
| 2026-05-05 07:31 | 48.68269 | -42.11160 | 36875 ft | 497 kts | 82° |
| 2026-05-05 07:32 | 48.69915 | -42.01043 | 36878 ft | 497 kts | 82° |
| 2026-05-05 07:32 | 48.71558 | -41.90836 | 36881 ft | 496 kts | 82° |
| 2026-05-05 07:33 | 48.73160 | -41.80701 | 36884 ft | 496 kts | 82° |
| 2026-05-05 07:33 | 48.74761 | -41.70521 | 36887 ft | 496 kts | 82° |
| 2026-05-05 07:34 | 48.76348 | -41.60407 | 36890 ft | 495 kts | 82° |
| 2026-05-05 07:34 | 48.77940 | -41.50229 | 36966 ft | 493 kts | 82° |
| 2026-05-05 07:35 | 48.79503 | -41.40163 | 37047 ft | 493 kts | 82° |
| 2026-05-05 07:35 | 48.81065 | -41.30015 | 37057 ft | 493 kts | 82° |
| 2026-05-05 07:36 | 48.82616 | -41.19870 | 37061 ft | 493 kts | 82° |
| 2026-05-05 07:36 | 48.84152 | -41.09763 | 37063 ft | 494 kts | 82° |
| 2026-05-05 07:37 | 48.85697 | -40.99545 | 37066 ft | 494 kts | 82° |
| 2026-05-05 07:37 | 48.87214 | -40.89409 | 37069 ft | 494 kts | 82° |
| 2026-05-05 07:38 | 48.88726 | -40.79198 | 37072 ft | 494 kts | 82° |
| 2026-05-05 07:38 | 48.90242 | -40.69062 | 37075 ft | 494 kts | 82° |
| 2026-05-05 07:39 | 48.91817 | -40.58883 | 37078 ft | 495 kts | 82° |
| 2026-05-05 07:39 | 48.93353 | -40.48707 | 37081 ft | 494 kts | 82° |
| 2026-05-05 07:40 | 48.94836 | -40.38521 | 37089 ft | 494 kts | 82° |
| 2026-05-05 07:40 | 48.96303 | -40.28283 | 37093 ft | 494 kts | 82° |
| 2026-05-05 07:41 | 48.97749 | -40.18059 | 37096 ft | 494 kts | 83° |
| 2026-05-05 07:41 | 48.99159 | -40.07869 | 37099 ft | 495 kts | 81° |
| 2026-05-05 07:42 | 49.01187 | -39.97789 | 37120 ft | 498 kts | 74° |
| 2026-05-05 07:42 | 49.03573 | -39.87908 | 37110 ft | 500 kts | 72° |
| 2026-05-05 07:43 | 49.06082 | -39.78012 | 37107 ft | 501 kts | 72° |
| 2026-05-05 07:43 | 49.08620 | -39.68117 | 37109 ft | 501 kts | 72° |
| 2026-05-05 07:44 | 49.11155 | -39.58232 | 37112 ft | 501 kts | 72° |
| 2026-05-05 07:44 | 49.13696 | -39.48289 | 37114 ft | 501 kts | 72° |
| 2026-05-05 07:45 | 49.16209 | -39.38397 | 37116 ft | 501 kts | 72° |
| 2026-05-05 07:45 | 49.18711 | -39.28475 | 37119 ft | 501 kts | 72° |
| 2026-05-05 07:46 | 49.21208 | -39.18489 | 37121 ft | 501 kts | 72° |
| 2026-05-05 07:46 | 49.23677 | -39.08530 | 37124 ft | 501 kts | 72° |
| 2026-05-05 07:47 | 49.26134 | -38.98524 | 37126 ft | 501 kts | 72° |
| 2026-05-05 07:47 | 49.28565 | -38.88527 | 37128 ft | 501 kts | 72° |
| 2026-05-05 07:48 | 49.30974 | -38.78497 | 37131 ft | 501 kts | 72° |
| 2026-05-05 07:48 | 49.33352 | -38.68474 | 37133 ft | 501 kts | 72° |
| 2026-05-05 07:49 | 49.35710 | -38.58427 | 37135 ft | 501 kts | 72° |
| 2026-05-05 07:49 | 49.38053 | -38.48393 | 37137 ft | 501 kts | 71° |
| 2026-05-05 07:50 | 49.40444 | -38.38285 | 37140 ft | 501 kts | 71° |
| 2026-05-05 07:50 | 49.42825 | -38.28277 | 37142 ft | 501 kts | 71° |
| 2026-05-05 07:51 | 49.45205 | -38.18231 | 37144 ft | 501 kts | 71° |
| 2026-05-05 07:51 | 49.47581 | -38.08140 | 37146 ft | 501 kts | 71° |
| 2026-05-05 07:52 | 49.49944 | -37.98039 | 37148 ft | 501 kts | 71° |
| 2026-05-05 07:52 | 49.52264 | -37.87952 | 37150 ft | 501 kts | 71° |
| 2026-05-05 07:53 | 49.54552 | -37.77861 | 37152 ft | 501 kts | 71° |
| 2026-05-05 07:53 | 49.56843 | -37.67678 | 37154 ft | 501 kts | 71° |
| 2026-05-05 07:54 | 49.59111 | -37.57537 | 37156 ft | 501 kts | 71° |
| 2026-05-05 07:54 | 49.61367 | -37.47385 | 37158 ft | 501 kts | 71° |
| 2026-05-05 07:55 | 49.63612 | -37.37198 | 37160 ft | 502 kts | 71° |
| 2026-05-05 07:55 | 49.65836 | -37.27004 | 37162 ft | 502 kts | 71° |
| 2026-05-05 07:56 | 49.68032 | -37.16821 | 37164 ft | 502 kts | 71° |
| 2026-05-05 07:56 | 49.70215 | -37.06560 | 37153 ft | 502 kts | 71° |
| 2026-05-05 07:57 | 49.72399 | -36.96342 | 37138 ft | 502 kts | 70° |
| 2026-05-05 07:57 | 49.74691 | -36.86072 | 37138 ft | 502 kts | 69° |
| 2026-05-05 07:58 | 49.76976 | -36.75887 | 37140 ft | 502 kts | 69° |
| 2026-05-05 07:58 | 49.79251 | -36.65660 | 37142 ft | 502 kts | 69° |
| 2026-05-05 07:59 | 49.81494 | -36.55437 | 37143 ft | 503 kts | 69° |
| 2026-05-05 07:59 | 49.83707 | -36.45209 | 37145 ft | 503 kts | 69° |
| 2026-05-05 08:00 | 49.85918 | -36.34858 | 37147 ft | 503 kts | 69° |
| 2026-05-05 08:00 | 49.88083 | -36.24596 | 37149 ft | 503 kts | 69° |
| 2026-05-05 08:01 | 49.90255 | -36.14210 | 37150 ft | 504 kts | 69° |
| 2026-05-05 08:01 | 49.92397 | -36.03880 | 37152 ft | 504 kts | 70° |
| 2026-05-05 08:02 | 49.94532 | -35.93527 | 37153 ft | 504 kts | 70° |
| 2026-05-05 08:02 | 49.96663 | -35.83166 | 37155 ft | 504 kts | 70° |
| 2026-05-05 08:03 | 49.98794 | -35.72768 | 37156 ft | 504 kts | 70° |
| 2026-05-05 08:03 | 50.00906 | -35.62408 | 37158 ft | 504 kts | 70° |
| 2026-05-05 08:04 | 50.03000 | -35.52035 | 37159 ft | 503 kts | 70° |
| 2026-05-05 08:04 | 50.05069 | -35.41656 | 37161 ft | 503 kts | 70° |
| 2026-05-05 08:05 | 50.07116 | -35.31236 | 37162 ft | 503 kts | 70° |
| 2026-05-05 08:05 | 50.09178 | -35.20814 | 37163 ft | 502 kts | 69° |
| 2026-05-05 08:06 | 50.11243 | -35.10447 | 37165 ft | 502 kts | 69° |
| 2026-05-05 08:06 | 50.13293 | -35.00043 | 37166 ft | 501 kts | 69° |
| 2026-05-05 08:07 | 50.15310 | -34.89653 | 37168 ft | 501 kts | 69° |
| 2026-05-05 08:07 | 50.17289 | -34.79292 | 37169 ft | 501 kts | 69° |
| 2026-05-05 08:08 | 50.19256 | -34.68883 | 37170 ft | 500 kts | 69° |
| 2026-05-05 08:08 | 50.21233 | -34.58467 | 37172 ft | 500 kts | 68° |
| 2026-05-05 08:09 | 50.23226 | -34.48061 | 37173 ft | 499 kts | 68° |
| 2026-05-05 08:09 | 50.25209 | -34.37666 | 37174 ft | 499 kts | 68° |
| 2026-05-05 08:10 | 50.27175 | -34.27288 | 37190 ft | 499 kts | 68° |
| 2026-05-05 08:10 | 50.28791 | -34.18676 | 37257 ft | 498 kts | 68° |
| 2026-05-05 08:11 | 50.30743 | -34.08219 | 37274 ft | 498 kts | 68° |
| 2026-05-05 08:11 | 50.32677 | -33.97827 | 37277 ft | 498 kts | 68° |
| 2026-05-05 08:12 | 50.34598 | -33.87457 | 37278 ft | 498 kts | 68° |
| 2026-05-05 08:12 | 50.36518 | -33.77022 | 37280 ft | 498 kts | 68° |
| 2026-05-05 08:13 | 50.38502 | -33.66574 | 37281 ft | 498 kts | 68° |
| 2026-05-05 08:13 | 50.40443 | -33.56159 | 37282 ft | 498 kts | 68° |
| 2026-05-05 08:14 | 50.42331 | -33.45785 | 37284 ft | 498 kts | 68° |
| 2026-05-05 08:14 | 50.44220 | -33.35317 | 37285 ft | 497 kts | 68° |
| 2026-05-05 08:15 | 50.46088 | -33.24876 | 37286 ft | 497 kts | 69° |
| 2026-05-05 08:15 | 50.47945 | -33.14425 | 37288 ft | 497 kts | 69° |
| 2026-05-05 08:16 | 50.49787 | -33.03991 | 37289 ft | 496 kts | 69° |
| 2026-05-05 08:16 | 50.51628 | -32.93496 | 37290 ft | 496 kts | 69° |
| 2026-05-05 08:17 | 50.53443 | -32.83070 | 37292 ft | 496 kts | 69° |
| 2026-05-05 08:17 | 50.55263 | -32.72585 | 37293 ft | 495 kts | 69° |
| 2026-05-05 08:18 | 50.57066 | -32.62123 | 37294 ft | 495 kts | 69° |
| 2026-05-05 08:18 | 50.58851 | -32.51687 | 37295 ft | 495 kts | 69° |
| 2026-05-05 08:19 | 50.60629 | -32.41250 | 37297 ft | 495 kts | 69° |
| 2026-05-05 08:19 | 50.62414 | -32.30731 | 37298 ft | 495 kts | 69° |
| 2026-05-05 08:20 | 50.64181 | -32.20269 | 37299 ft | 495 kts | 69° |
| 2026-05-05 08:20 | 50.65945 | -32.09784 | 37300 ft | 494 kts | 69° |
| 2026-05-05 08:21 | 50.67695 | -31.99354 | 37301 ft | 494 kts | 69° |
| 2026-05-05 08:21 | 50.69453 | -31.88850 | 37302 ft | 495 kts | 69° |
| 2026-05-05 08:22 | 50.71206 | -31.78392 | 37303 ft | 495 kts | 69° |
| 2026-05-05 08:22 | 50.72973 | -31.67845 | 37305 ft | 495 kts | 69° |
| 2026-05-05 08:23 | 50.74714 | -31.57413 | 37306 ft | 495 kts | 69° |
| 2026-05-05 08:23 | 50.76407 | -31.46872 | 37307 ft | 495 kts | 70° |
| 2026-05-05 08:24 | 50.78074 | -31.36287 | 37308 ft | 496 kts | 70° |
| 2026-05-05 08:24 | 50.79728 | -31.25733 | 37308 ft | 496 kts | 70° |
| 2026-05-05 08:25 | 50.81392 | -31.15118 | 37310 ft | 496 kts | 70° |
| 2026-05-05 08:25 | 50.83048 | -31.04568 | 37342 ft | 495 kts | 70° |
| 2026-05-05 08:26 | 50.84714 | -30.93981 | 37429 ft | 494 kts | 70° |
| 2026-05-05 08:26 | 50.86395 | -30.83475 | 37439 ft | 494 kts | 70° |
| 2026-05-05 08:27 | 50.88145 | -30.72973 | 37440 ft | 494 kts | 70° |
| 2026-05-05 08:27 | 50.89926 | -30.62416 | 37440 ft | 495 kts | 69° |
| 2026-05-05 08:28 | 50.91703 | -30.51876 | 37440 ft | 495 kts | 70° |
| 2026-05-05 08:28 | 50.93418 | -30.41363 | 37439 ft | 495 kts | 70° |
| 2026-05-05 08:29 | 50.95111 | -30.30776 | 37439 ft | 496 kts | 70° |
| 2026-05-05 08:30 | 50.97642 | -30.14867 | 37439 ft | 496 kts | 71° |
| 2026-05-05 08:30 | 50.99484 | -30.04369 | 37450 ft | 492 kts | 66° |
| 2026-05-05 08:31 | 51.01793 | -29.94148 | 37455 ft | 490 kts | 64° |
| 2026-05-05 08:31 | 51.04233 | -29.84043 | 37447 ft | 490 kts | 64° |
| 2026-05-05 08:32 | 51.06705 | -29.73984 | 37446 ft | 490 kts | 64° |
| 2026-05-05 08:32 | 51.09204 | -29.63911 | 37446 ft | 490 kts | 64° |
| 2026-05-05 08:33 | 51.11714 | -29.53810 | 37446 ft | 489 kts | 64° |
| 2026-05-05 08:33 | 51.14222 | -29.43745 | 37446 ft | 489 kts | 64° |
| 2026-05-05 08:34 | 51.16728 | -29.33688 | 37446 ft | 489 kts | 64° |
| 2026-05-05 08:34 | 51.19181 | -29.23594 | 37446 ft | 489 kts | 65° |
| 2026-05-05 08:35 | 51.21604 | -29.13526 | 37446 ft | 489 kts | 65° |
| 2026-05-05 08:35 | 51.24041 | -29.03385 | 37446 ft | 489 kts | 65° |
| 2026-05-05 08:36 | 51.26485 | -28.93245 | 37445 ft | 489 kts | 65° |
| 2026-05-05 08:36 | 51.28924 | -28.83128 | 37445 ft | 488 kts | 65° |
| 2026-05-05 08:37 | 51.31317 | -28.72986 | 37445 ft | 488 kts | 66° |
| 2026-05-05 08:37 | 51.33681 | -28.62822 | 37445 ft | 489 kts | 66° |
| 2026-05-05 08:38 | 51.36060 | -28.52577 | 37445 ft | 488 kts | 66° |
| 2026-05-05 08:38 | 51.38426 | -28.42412 | 37445 ft | 488 kts | 66° |
| 2026-05-05 08:39 | 51.40793 | -28.32289 | 37445 ft | 488 kts | 66° |
| 2026-05-05 08:39 | 51.43171 | -28.22093 | 37444 ft | 488 kts | 67° |
| 2026-05-05 08:40 | 51.45498 | -28.11838 | 37444 ft | 487 kts | 67° |
| 2026-05-05 08:40 | 51.47792 | -28.01603 | 37444 ft | 487 kts | 67° |
| 2026-05-05 08:41 | 51.50083 | -27.91402 | 37444 ft | 487 kts | 67° |
| 2026-05-05 08:41 | 51.52434 | -27.81243 | 37444 ft | 487 kts | 67° |
| 2026-05-05 08:42 | 51.54841 | -27.71023 | 37444 ft | 487 kts | 66° |
| 2026-05-05 08:42 | 51.57236 | -27.60886 | 37444 ft | 487 kts | 66° |
| 2026-05-05 08:43 | 51.59630 | -27.50681 | 37443 ft | 487 kts | 67° |
| 2026-05-05 08:43 | 51.61956 | -27.40462 | 37443 ft | 488 kts | 68° |
| 2026-05-05 08:44 | 51.64270 | -27.30174 | 37443 ft | 488 kts | 68° |
| 2026-05-05 08:44 | 51.66581 | -27.19861 | 37443 ft | 488 kts | 68° |
| 2026-05-05 08:45 | 51.68874 | -27.09622 | 37443 ft | 488 kts | 68° |
| 2026-05-05 08:45 | 51.71192 | -26.99289 | 37429 ft | 489 kts | 68° |
| 2026-05-05 08:46 | 51.73512 | -26.88948 | 37422 ft | 489 kts | 68° |
| 2026-05-05 08:46 | 51.75809 | -26.78667 | 37421 ft | 490 kts | 68° |
| 2026-05-05 08:47 | 51.78067 | -26.68271 | 37421 ft | 490 kts | 69° |
| 2026-05-05 08:47 | 51.80295 | -26.57879 | 37421 ft | 491 kts | 69° |
| 2026-05-05 08:48 | 51.82532 | -26.47411 | 37421 ft | 491 kts | 69° |
| 2026-05-05 08:48 | 51.84765 | -26.36963 | 37420 ft | 492 kts | 69° |
| 2026-05-05 08:49 | 51.86996 | -26.26539 | 37420 ft | 492 kts | 69° |
| 2026-05-05 08:49 | 51.89229 | -26.16100 | 37420 ft | 492 kts | 69° |
| 2026-05-05 08:50 | 51.91471 | -26.05597 | 37420 ft | 492 kts | 69° |
| 2026-05-05 08:50 | 51.93660 | -25.95036 | 37420 ft | 493 kts | 70° |
| 2026-05-05 08:51 | 51.95800 | -25.84496 | 37420 ft | 493 kts | 70° |
| 2026-05-05 08:51 | 51.97924 | -25.73946 | 37420 ft | 493 kts | 70° |
| 2026-05-05 08:52 | 52.00036 | -25.63415 | 37417 ft | 493 kts | 70° |
| 2026-05-05 08:52 | 52.02161 | -25.52787 | 37415 ft | 493 kts | 70° |
| 2026-05-05 08:53 | 52.04272 | -25.42198 | 37414 ft | 493 kts | 70° |
| 2026-05-05 08:53 | 52.06381 | -25.31592 | 37414 ft | 493 kts | 70° |
| 2026-05-05 08:54 | 52.08473 | -25.21062 | 37414 ft | 492 kts | 70° |
| 2026-05-05 08:54 | 52.10586 | -25.10431 | 37391 ft | 493 kts | 70° |
| 2026-05-05 08:55 | 52.12743 | -24.99869 | 37350 ft | 493 kts | 70° |
| 2026-05-05 08:55 | 52.14916 | -24.89305 | 37331 ft | 492 kts | 70° |
| 2026-05-05 08:56 | 52.16693 | -24.80447 | 37314 ft | 492 kts | 70° |
| 2026-05-05 08:56 | 52.18798 | -24.69817 | 37310 ft | 492 kts | 70° |
| 2026-05-05 08:57 | 52.20875 | -24.59271 | 37309 ft | 491 kts | 70° |
| 2026-05-05 08:57 | 52.22958 | -24.48650 | 37308 ft | 491 kts | 71° |
| 2026-05-05 08:58 | 52.25034 | -24.38026 | 37307 ft | 491 kts | 71° |
| 2026-05-05 08:58 | 52.27104 | -24.27389 | 37306 ft | 491 kts | 71° |
| 2026-05-05 08:59 | 52.29173 | -24.16728 | 37290 ft | 491 kts | 71° |
| 2026-05-05 08:59 | 52.31226 | -24.06116 | 37287 ft | 491 kts | 71° |
| 2026-05-05 09:00 | 52.33280 | -23.95465 | 37290 ft | 491 kts | 71° |
| 2026-05-05 09:00 | 52.35320 | -23.84858 | 37293 ft | 491 kts | 71° |
| 2026-05-05 09:01 | 52.37355 | -23.74219 | 37293 ft | 491 kts | 71° |
| 2026-05-05 09:01 | 52.39333 | -23.63506 | 37292 ft | 491 kts | 72° |
| 2026-05-05 09:02 | 52.41267 | -23.52844 | 37289 ft | 490 kts | 72° |
| 2026-05-05 09:02 | 52.43201 | -23.42109 | 37272 ft | 490 kts | 72° |
| 2026-05-05 09:03 | 52.45122 | -23.31394 | 37269 ft | 490 kts | 72° |
| 2026-05-05 09:03 | 52.47050 | -23.20630 | 37268 ft | 490 kts | 72° |
| 2026-05-05 09:04 | 52.48954 | -23.09978 | 37268 ft | 489 kts | 72° |
| 2026-05-05 09:04 | 52.50871 | -22.99207 | 37267 ft | 489 kts | 72° |
| 2026-05-05 09:05 | 52.52768 | -22.88514 | 37266 ft | 489 kts | 72° |
| 2026-05-05 09:05 | 52.54663 | -22.77792 | 37265 ft | 489 kts | 72° |
| 2026-05-05 09:06 | 52.56548 | -22.67079 | 37264 ft | 488 kts | 72° |
| 2026-05-05 09:06 | 52.58423 | -22.56377 | 37261 ft | 488 kts | 72° |
| 2026-05-05 09:07 | 52.60248 | -22.45585 | 37257 ft | 488 kts | 73° |
| 2026-05-05 09:07 | 52.62074 | -22.34877 | 37256 ft | 487 kts | 72° |
| 2026-05-05 09:08 | 52.63930 | -22.24139 | 37255 ft | 487 kts | 72° |
| 2026-05-05 09:08 | 52.65793 | -22.13377 | 37253 ft | 487 kts | 72° |
| 2026-05-05 09:09 | 52.67640 | -22.02690 | 37250 ft | 487 kts | 72° |
| 2026-05-05 09:09 | 52.69491 | -21.91945 | 37249 ft | 487 kts | 72° |
| 2026-05-05 09:10 | 52.71329 | -21.81214 | 37248 ft | 487 kts | 72° |
| 2026-05-05 09:10 | 52.73161 | -21.70457 | 37247 ft | 486 kts | 72° |
| 2026-05-05 09:11 | 52.74986 | -21.59692 | 37247 ft | 486 kts | 73° |
| 2026-05-05 09:11 | 52.76797 | -21.48972 | 37246 ft | 486 kts | 73° |
| 2026-05-05 09:12 | 52.78605 | -21.38220 | 37246 ft | 486 kts | 73° |
| 2026-05-05 09:12 | 52.80368 | -21.27427 | 37247 ft | 486 kts | 73° |
| 2026-05-05 09:13 | 52.82075 | -21.16628 | 37246 ft | 486 kts | 74° |
| 2026-05-05 09:13 | 52.83771 | -21.05781 | 37245 ft | 486 kts | 74° |
| 2026-05-05 09:14 | 52.85443 | -20.95015 | 37244 ft | 485 kts | 74° |
| 2026-05-05 09:14 | 52.87124 | -20.84141 | 37243 ft | 485 kts | 74° |
| 2026-05-05 09:15 | 52.88781 | -20.73339 | 37239 ft | 486 kts | 74° |
| 2026-05-05 09:15 | 52.90437 | -20.62487 | 37235 ft | 485 kts | 74° |
| 2026-05-05 09:16 | 52.92081 | -20.51692 | 37234 ft | 485 kts | 74° |
| 2026-05-05 09:16 | 52.93725 | -20.40857 | 37233 ft | 485 kts | 74° |
| 2026-05-05 09:17 | 52.95362 | -20.30023 | 37232 ft | 485 kts | 74° |
| 2026-05-05 09:17 | 52.96993 | -20.19187 | 37204 ft | 485 kts | 74° |
| 2026-05-05 09:18 | 52.98595 | -20.08293 | 37183 ft | 486 kts | 77° |
| 2026-05-05 09:18 | 52.99435 | -19.97173 | 37205 ft | 486 kts | 84° |
| 2026-05-05 09:19 | 52.99845 | -19.86003 | 37187 ft | 486 kts | 86° |
| 2026-05-05 09:19 | 53.00095 | -19.74773 | 37185 ft | 486 kts | 88° |
| 2026-05-05 09:20 | 53.00048 | -19.63566 | 37186 ft | 487 kts | 90° |
| 2026-05-05 09:20 | 52.99956 | -19.52330 | 37186 ft | 486 kts | 88° |
| 2026-05-05 09:21 | 53.00041 | -19.41070 | 37179 ft | 486 kts | 88° |
| 2026-05-05 09:21 | 53.00003 | -19.29918 | 37176 ft | 486 kts | 89° |
| 2026-05-05 09:22 | 53.00013 | -19.18643 | 37177 ft | 486 kts | 88° |
| 2026-05-05 09:22 | 52.99987 | -19.07461 | 37175 ft | 486 kts | 89° |
| 2026-05-05 09:23 | 53.00014 | -18.96204 | 37174 ft | 486 kts | 88° |
| 2026-05-05 09:23 | 52.99995 | -18.85002 | 37174 ft | 486 kts | 88° |
| 2026-05-05 09:24 | 52.99988 | -18.73766 | 37173 ft | 486 kts | 89° |
| 2026-05-05 09:24 | 53.00012 | -18.62624 | 37173 ft | 485 kts | 88° |
| 2026-05-05 09:25 | 52.99990 | -18.51414 | 37171 ft | 486 kts | 89° |
| 2026-05-05 09:25 | 52.99989 | -18.40174 | 37171 ft | 488 kts | 90° |
| 2026-05-05 09:26 | 53.00008 | -18.28867 | 37170 ft | 489 kts | 89° |
| 2026-05-05 09:26 | 52.99979 | -18.17538 | 37170 ft | 490 kts | 89° |
| 2026-05-05 09:27 | 53.00010 | -18.06241 | 37170 ft | 490 kts | 90° |
| 2026-05-05 09:27 | 52.99986 | -17.94941 | 37169 ft | 490 kts | 89° |
| 2026-05-05 09:28 | 52.99986 | -17.83625 | 37169 ft | 490 kts | 90° |
| 2026-05-05 09:28 | 53.00004 | -17.72302 | 37167 ft | 490 kts | 89° |
| 2026-05-05 09:29 | 53.00023 | -17.60984 | 37166 ft | 489 kts | 89° |
| 2026-05-05 09:29 | 53.00007 | -17.49697 | 37166 ft | 489 kts | 89° |
| 2026-05-05 09:30 | 53.00012 | -17.38376 | 37165 ft | 489 kts | 89° |
| 2026-05-05 09:30 | 53.00003 | -17.27070 | 37156 ft | 490 kts | 89° |
| 2026-05-05 09:31 | 53.00012 | -17.15758 | 37152 ft | 490 kts | 89° |
| 2026-05-05 09:31 | 52.99997 | -17.04485 | 37151 ft | 490 kts | 89° |
| 2026-05-05 09:32 | 53.00007 | -16.93133 | 37151 ft | 490 kts | 89° |
| 2026-05-05 09:32 | 53.00010 | -16.81861 | 37150 ft | 490 kts | 89° |
| 2026-05-05 09:33 | 52.99993 | -16.70542 | 37149 ft | 490 kts | 89° |
| 2026-05-05 09:33 | 52.99999 | -16.59266 | 37149 ft | 490 kts | 89° |
| 2026-05-05 09:34 | 52.99986 | -16.47924 | 37148 ft | 490 kts | 89° |
| 2026-05-05 09:34 | 52.99989 | -16.36614 | 37148 ft | 490 kts | 89° |
| 2026-05-05 09:35 | 52.99991 | -16.25322 | 37147 ft | 490 kts | 89° |
| 2026-05-05 09:35 | 52.99985 | -16.08360 | 37146 ft | 490 kts | 89° |
| 2026-05-05 09:36 | 52.99972 | -15.97073 | 37146 ft | 489 kts | 89° |
| 2026-05-05 09:36 | 52.99950 | -15.85777 | 37145 ft | 489 kts | 89° |
| 2026-05-05 09:37 | 52.99920 | -15.74505 | 37144 ft | 488 kts | 89° |
| 2026-05-05 09:37 | 52.99883 | -15.63206 | 37144 ft | 488 kts | 89° |
| 2026-05-05 09:38 | 52.99840 | -15.51980 | 37143 ft | 488 kts | 89° |
| 2026-05-05 09:38 | 52.99832 | -15.40686 | 37143 ft | 488 kts | 88° |
| 2026-05-05 09:39 | 52.99899 | -15.29447 | 37142 ft | 488 kts | 88° |
| 2026-05-05 09:39 | 52.99944 | -15.20020 | 37140 ft | 488 kts | 88° |
| 2026-05-05 09:40 | 52.99989 | -15.08828 | 37140 ft | 488 kts | 89° |
| 2026-05-05 09:40 | 53.00028 | -14.97576 | 37140 ft | 488 kts | 89° |
| 2026-05-05 09:41 | 53.00064 | -14.86255 | 37139 ft | 487 kts | 89° |
| 2026-05-05 09:41 | 53.00094 | -14.75074 | 37139 ft | 487 kts | 89° |
| 2026-05-05 09:42 | 53.00117 | -14.63797 | 37139 ft | 487 kts | 89° |
| 2026-05-05 09:42 | 53.00134 | -14.52563 | 37138 ft | 487 kts | 89° |
| 2026-05-05 09:43 | 53.00143 | -14.41327 | 37138 ft | 487 kts | 89° |
| 2026-05-05 09:43 | 53.00145 | -14.30098 | 37137 ft | 486 kts | 89° |
| 2026-05-05 09:44 | 53.00132 | -14.18864 | 37137 ft | 486 kts | 89° |
| 2026-05-05 09:44 | 53.00128 | -14.07693 | 37141 ft | 486 kts | 85° |
| 2026-05-05 09:45 | 53.00757 | -14.02197 | 37153 ft | 482 kts | 71° |
| 2026-05-05 09:45 | 53.01997 | -13.96987 | 37157 ft | 480 kts | 63° |
| 2026-05-05 09:45 | 53.05177 | -13.87372 | 37162 ft | 478 kts | 57° |
| 2026-05-05 09:46 | 53.08752 | -13.77992 | 37144 ft | 478 kts | 55° |
| 2026-05-05 09:46 | 53.12398 | -13.68781 | 37135 ft | 478 kts | 54° |
| 2026-05-05 09:47 | 53.16096 | -13.59532 | 37134 ft | 478 kts | 54° |
| 2026-05-05 09:47 | 53.19786 | -13.50320 | 37134 ft | 478 kts | 54° |
| 2026-05-05 09:48 | 53.23463 | -13.41135 | 37133 ft | 478 kts | 54° |
| 2026-05-05 09:48 | 53.27160 | -13.31884 | 37133 ft | 478 kts | 54° |
| 2026-05-05 09:49 | 53.30849 | -13.22549 | 37133 ft | 479 kts | 55° |
| 2026-05-05 09:49 | 53.34455 | -13.13229 | 37132 ft | 479 kts | 55° |
| 2026-05-05 09:50 | 53.38045 | -13.03885 | 37132 ft | 479 kts | 55° |
| 2026-05-05 09:50 | 53.41674 | -12.94490 | 37132 ft | 479 kts | 55° |
| 2026-05-05 09:51 | 53.45329 | -12.85209 | 37131 ft | 479 kts | 54° |
| 2026-05-05 09:51 | 53.49024 | -12.75877 | 37131 ft | 479 kts | 54° |
| 2026-05-05 09:52 | 53.52714 | -12.66569 | 37131 ft | 479 kts | 54° |
| 2026-05-05 09:52 | 53.56414 | -12.57245 | 37130 ft | 479 kts | 54° |
| 2026-05-05 09:53 | 53.60109 | -12.47922 | 37130 ft | 479 kts | 55° |
| 2026-05-05 09:53 | 53.63755 | -12.38524 | 37129 ft | 479 kts | 55° |
| 2026-05-05 09:54 | 53.67357 | -12.29131 | 37129 ft | 479 kts | 56° |
| 2026-05-05 09:54 | 53.70985 | -12.19626 | 37128 ft | 480 kts | 56° |
| 2026-05-05 09:55 | 53.74591 | -12.10157 | 37128 ft | 480 kts | 56° |
| 2026-05-05 09:55 | 53.78186 | -12.00699 | 37127 ft | 480 kts | 56° |
| 2026-05-05 09:56 | 53.81787 | -11.91208 | 37127 ft | 480 kts | 56° |
| 2026-05-05 09:56 | 53.85399 | -11.81671 | 37126 ft | 480 kts | 56° |
| 2026-05-05 09:57 | 53.89003 | -11.72138 | 37125 ft | 480 kts | 56° |
| 2026-05-05 09:57 | 53.92609 | -11.62573 | 37127 ft | 480 kts | 56° |
| 2026-05-05 09:58 | 53.96181 | -11.53037 | 37141 ft | 480 kts | 56° |
| 2026-05-05 09:58 | 53.99703 | -11.43404 | 37138 ft | 480 kts | 57° |
| 2026-05-05 09:59 | 54.03211 | -11.33694 | 37127 ft | 481 kts | 57° |
| 2026-05-05 09:59 | 54.06685 | -11.24021 | 37126 ft | 481 kts | 57° |
| 2026-05-05 10:00 | 54.10177 | -11.14267 | 37126 ft | 481 kts | 57° |
| 2026-05-05 10:00 | 54.13634 | -11.04581 | 37126 ft | 481 kts | 57° |
| 2026-05-05 10:01 | 54.17114 | -10.94803 | 37126 ft | 481 kts | 57° |
| 2026-05-05 10:01 | 54.20577 | -10.85046 | 37126 ft | 481 kts | 57° |
| 2026-05-05 10:02 | 54.24041 | -10.75264 | 37126 ft | 481 kts | 57° |
| 2026-05-05 10:02 | 54.27489 | -10.65503 | 37126 ft | 481 kts | 57° |
| 2026-05-05 10:03 | 54.30960 | -10.55655 | 37124 ft | 481 kts | 57° |
| 2026-05-05 10:03 | 54.34407 | -10.45850 | 37123 ft | 481 kts | 57° |
| 2026-05-05 10:04 | 54.37855 | -10.36039 | 37123 ft | 480 kts | 57° |
| 2026-05-05 10:04 | 54.41353 | -10.26278 | 37123 ft | 480 kts | 57° |
| 2026-05-05 10:05 | 54.44747 | -10.16395 | 37132 ft | 481 kts | 60° |
| 2026-05-05 10:05 | 54.47675 | -10.06021 | 37135 ft | 482 kts | 63° |
| 2026-05-05 10:06 | 54.50447 | -9.95535 | 37125 ft | 482 kts | 64° |
| 2026-05-05 10:06 | 54.53114 | -9.84988 | 37124 ft | 482 kts | 65° |
| 2026-05-05 10:07 | 54.55749 | -9.74387 | 37125 ft | 482 kts | 65° |
| 2026-05-05 10:07 | 54.58355 | -9.63687 | 37125 ft | 483 kts | 66° |
| 2026-05-05 10:08 | 54.60473 | -9.52712 | 37157 ft | 484 kts | 75° |
| 2026-05-05 10:08 | 54.61790 | -9.41306 | 37168 ft | 485 kts | 79° |
| 2026-05-05 10:09 | 54.62792 | -9.29794 | 37148 ft | 486 kts | 81° |
| 2026-05-05 10:09 | 54.63697 | -9.18227 | 37141 ft | 486 kts | 82° |
| 2026-05-05 10:10 | 54.64567 | -9.06693 | 37141 ft | 487 kts | 82° |
| 2026-05-05 10:10 | 54.65428 | -8.95112 | 37141 ft | 487 kts | 82° |
| 2026-05-05 10:11 | 54.66285 | -8.83447 | 37141 ft | 487 kts | 82° |
| 2026-05-05 10:11 | 54.67111 | -8.71809 | 37138 ft | 488 kts | 82° |
| 2026-05-05 10:12 | 54.67872 | -8.60164 | 37137 ft | 488 kts | 83° |
| 2026-05-05 10:12 | 54.68611 | -8.48540 | 37139 ft | 488 kts | 83° |
| 2026-05-05 10:13 | 54.69342 | -8.36897 | 37139 ft | 488 kts | 83° |
| 2026-05-05 10:13 | 54.70068 | -8.25221 | 37137 ft | 488 kts | 83° |
| 2026-05-05 10:14 | 54.70786 | -8.13588 | 37135 ft | 488 kts | 83° |
| 2026-05-05 10:14 | 54.71500 | -8.01925 | 37133 ft | 488 kts | 83° |
| 2026-05-05 10:15 | 54.72212 | -7.90250 | 37131 ft | 488 kts | 83° |
| 2026-05-05 10:15 | 54.72589 | -7.78544 | 37142 ft | 488 kts | 92° |
| 2026-05-05 10:16 | 54.71927 | -7.66857 | 37154 ft | 488 kts | 97° |
| 2026-05-05 10:16 | 54.70908 | -7.55193 | 37133 ft | 489 kts | 99° |
| 2026-05-05 10:17 | 54.69747 | -7.43664 | 37122 ft | 489 kts | 100° |
| 2026-05-05 10:17 | 54.68527 | -7.32065 | 37119 ft | 489 kts | 101° |
| 2026-05-05 10:18 | 54.67296 | -7.20519 | 37118 ft | 489 kts | 101° |
| 2026-05-05 10:18 | 54.66056 | -7.08966 | 37115 ft | 489 kts | 101° |
| 2026-05-05 10:19 | 54.64813 | -6.97433 | 37113 ft | 489 kts | 101° |
| 2026-05-05 10:19 | 54.63538 | -6.85921 | 37113 ft | 489 kts | 101° |
| 2026-05-05 10:20 | 54.62196 | -6.74373 | 37112 ft | 489 kts | 102° |
| 2026-05-05 10:20 | 54.60842 | -6.62905 | 37111 ft | 489 kts | 102° |
| 2026-05-05 10:21 | 54.59477 | -6.51430 | 37111 ft | 489 kts | 102° |
| 2026-05-05 10:21 | 54.58113 | -6.40001 | 37111 ft | 488 kts | 102° |
| 2026-05-05 10:22 | 54.56737 | -6.28501 | 37111 ft | 488 kts | 102° |
| 2026-05-05 10:22 | 54.55362 | -6.17050 | 37110 ft | 488 kts | 102° |
| 2026-05-05 10:23 | 54.53930 | -6.05593 | 36716 ft | 495 kts | 103° |
| 2026-05-05 10:23 | 54.53186 | -5.99807 | 36293 ft | 500 kts | 103° |
| 2026-05-05 10:23 | 54.52515 | -5.93883 | 36000 ft | 500 kts | 98° |
| 2026-05-05 10:24 | 54.52469 | -5.87996 | 35767 ft | 497 kts | 85° |
| 2026-05-05 10:24 | 54.53078 | -5.82174 | 35544 ft | 492 kts | 76° |
| 2026-05-05 10:24 | 54.54103 | -5.76565 | 35308 ft | 487 kts | 69° |
| 2026-05-05 10:24 | 54.55389 | -5.71252 | 35088 ft | 482 kts | 64° |
| 2026-05-05 10:25 | 54.56971 | -5.66155 | 34871 ft | 479 kts | 56° |
| 2026-05-05 10:25 | 54.58944 | -5.61570 | 34647 ft | 474 kts | 49° |
| 2026-05-05 10:25 | 54.60389 | -5.58728 | 34488 ft | 471 kts | 46° |
| 2026-05-05 10:25 | 54.63425 | -5.53384 | 34165 ft | 466 kts | 42° |
| 2026-05-05 10:26 | 54.64988 | -5.50825 | 34012 ft | 464 kts | 41° |
| 2026-05-05 10:26 | 54.67378 | -5.47033 | 33771 ft | 461 kts | 40° |
| 2026-05-05 10:26 | 54.69739 | -5.43365 | 33525 ft | 459 kts | 40° |
| 2026-05-05 10:26 | 54.72148 | -5.39703 | 33273 ft | 457 kts | 39° |
| 2026-05-05 10:27 | 54.74563 | -5.36130 | 33022 ft | 455 kts | 38° |
| 2026-05-05 10:27 | 54.76958 | -5.32653 | 32774 ft | 452 kts | 38° |
| 2026-05-05 10:27 | 54.79377 | -5.29155 | 32522 ft | 450 kts | 38° |
| 2026-05-05 10:27 | 54.81780 | -5.25648 | 32270 ft | 448 kts | 38° |
| 2026-05-05 10:28 | 54.84137 | -5.22217 | 32022 ft | 446 kts | 37° |
| 2026-05-05 10:28 | 54.86651 | -5.19055 | 31785 ft | 442 kts | 31° |
| 2026-05-05 10:28 | 54.89253 | -5.16237 | 31561 ft | 439 kts | 28° |
| 2026-05-05 10:28 | 54.91915 | -5.13597 | 31339 ft | 437 kts | 26° |
| 2026-05-05 10:29 | 54.94566 | -5.11111 | 31107 ft | 436 kts | 25° |
| 2026-05-05 10:29 | 54.97242 | -5.08669 | 30860 ft | 434 kts | 25° |
| 2026-05-05 10:29 | 54.99936 | -5.06245 | 30609 ft | 433 kts | 25° |
| 2026-05-05 10:29 | 55.02590 | -5.03875 | 30361 ft | 431 kts | 25° |
| 2026-05-05 10:30 | 55.05258 | -5.01497 | 30108 ft | 425 kts | 25° |
| 2026-05-05 10:30 | 55.07792 | -4.98931 | 29853 ft | 419 kts | 33° |
| 2026-05-05 10:30 | 55.09860 | -4.95433 | 29603 ft | 414 kts | 49° |
| 2026-05-05 10:30 | 55.11499 | -4.91288 | 29352 ft | 410 kts | 57° |
| 2026-05-05 10:31 | 55.12884 | -4.86971 | 29024 ft | 407 kts | 61° |
| 2026-05-05 10:31 | 55.14136 | -4.82618 | 28621 ft | 401 kts | 63° |
| 2026-05-05 10:31 | 55.15326 | -4.78239 | 28175 ft | 392 kts | 64° |
| 2026-05-05 10:31 | 55.16450 | -4.73973 | 27696 ft | 385 kts | 64° |
| 2026-05-05 10:32 | 55.17555 | -4.69704 | 27154 ft | 379 kts | 64° |
| 2026-05-05 10:32 | 55.18618 | -4.65553 | 26609 ft | 374 kts | 64° |
| 2026-05-05 10:32 | 55.19674 | -4.61406 | 26055 ft | 369 kts | 64° |
| 2026-05-05 10:32 | 55.20701 | -4.57355 | 25508 ft | 365 kts | 65° |
| 2026-05-05 10:33 | 55.21727 | -4.53291 | 24954 ft | 361 kts | 64° |
| 2026-05-05 10:33 | 55.22723 | -4.49328 | 24408 ft | 357 kts | 65° |
| 2026-05-05 10:33 | 55.23719 | -4.45346 | 23855 ft | 353 kts | 65° |
| 2026-05-05 10:33 | 55.24699 | -4.41408 | 23302 ft | 350 kts | 65° |
| 2026-05-05 10:34 | 55.25662 | -4.37523 | 22752 ft | 347 kts | 65° |
| 2026-05-05 10:34 | 55.26607 | -4.33690 | 22206 ft | 344 kts | 65° |
| 2026-05-05 10:34 | 55.27561 | -4.29808 | 21648 ft | 341 kts | 65° |
| 2026-05-05 10:34 | 55.28485 | -4.26027 | 21102 ft | 339 kts | 65° |
| 2026-05-05 10:35 | 55.29414 | -4.22217 | 20548 ft | 336 kts | 65° |
| 2026-05-05 10:35 | 55.30321 | -4.18479 | 20002 ft | 334 kts | 65° |
| 2026-05-05 10:35 | 55.31232 | -4.14713 | 19448 ft | 332 kts | 65° |
| 2026-05-05 10:35 | 55.32122 | -4.11016 | 18902 ft | 330 kts | 65° |
| 2026-05-05 10:36 | 55.33017 | -4.07291 | 18349 ft | 329 kts | 65° |
| 2026-05-05 10:36 | 55.33895 | -4.03621 | 17802 ft | 327 kts | 65° |
| 2026-05-05 10:36 | 55.34777 | -3.99913 | 17249 ft | 326 kts | 65° |
| 2026-05-05 10:36 | 55.35644 | -3.96260 | 16702 ft | 325 kts | 65° |
| 2026-05-05 10:37 | 55.36506 | -3.92623 | 16155 ft | 323 kts | 65° |
| 2026-05-05 10:37 | 55.37370 | -3.88970 | 15607 ft | 322 kts | 65° |
| 2026-05-05 10:37 | 55.38217 | -3.85382 | 15117 ft | 318 kts | 65° |
| 2026-05-05 10:37 | 55.39060 | -3.81800 | 14684 ft | 313 kts | 65° |
| 2026-05-05 10:38 | 55.39887 | -3.78280 | 14255 ft | 308 kts | 65° |
| 2026-05-05 10:38 | 55.40693 | -3.74832 | 13811 ft | 305 kts | 65° |
| 2026-05-05 10:38 | 55.41500 | -3.71374 | 13357 ft | 302 kts | 65° |
| 2026-05-05 10:38 | 55.42283 | -3.68000 | 12927 ft | 298 kts | 65° |
| 2026-05-05 10:39 | 55.43063 | -3.64626 | 12545 ft | 293 kts | 65° |
| 2026-05-05 10:39 | 55.43826 | -3.61313 | 12165 ft | 288 kts | 65° |
| 2026-05-05 10:39 | 55.44566 | -3.58090 | 11791 ft | 284 kts | 65° |
| 2026-05-05 10:39 | 55.45296 | -3.54909 | 11416 ft | 280 kts | 65° |
| 2026-05-05 10:40 | 55.46029 | -3.51733 | 11038 ft | 276 kts | 65° |
| 2026-05-05 10:40 | 55.46745 | -3.48650 | 10662 ft | 272 kts | 65° |
| 2026-05-05 10:40 | 55.47471 | -3.45560 | 10285 ft | 268 kts | 65° |
| 2026-05-05 10:40 | 55.48179 | -3.42569 | 9913 ft | 266 kts | 65° |
| 2026-05-05 10:41 | 55.48931 | -3.39727 | 9541 ft | 262 kts | 58° |
| 2026-05-05 10:41 | 55.50093 | -3.37360 | 9171 ft | 255 kts | 40° |
| 2026-05-05 10:41 | 55.51493 | -3.35486 | 8805 ft | 252 kts | 33° |
| 2026-05-05 10:41 | 55.52969 | -3.33776 | 8428 ft | 250 kts | 31° |
| 2026-05-05 10:42 | 55.55926 | -3.30538 | 7686 ft | 261 kts | 30° |
| 2026-05-05 10:42 | 55.57514 | -3.28829 | 7406 ft | 272 kts | 30° |
| 2026-05-05 10:42 | 55.59071 | -3.27155 | 7214 ft | 261 kts | 30° |
| 2026-05-05 10:43 | 55.60572 | -3.25545 | 7099 ft | 248 kts | 30° |
| 2026-05-05 10:43 | 55.62034 | -3.24006 | 7069 ft | 241 kts | 30° |
| 2026-05-05 10:43 | 55.63479 | -3.22513 | 7070 ft | 242 kts | 28° |
| 2026-05-05 10:43 | 55.65057 | -3.21487 | 7054 ft | 242 kts | 7° |
| 2026-05-05 10:44 | 55.66703 | -3.21914 | 6975 ft | 246 kts | 337° |
| 2026-05-05 10:44 | 55.68034 | -3.23843 | 6807 ft | 251 kts | 307° |
| 2026-05-05 10:44 | 55.68705 | -3.26659 | 6656 ft | 251 kts | 286° |
| 2026-05-05 10:44 | 55.69028 | -3.29723 | 6487 ft | 251 kts | 279° |
| 2026-05-05 10:45 | 55.69234 | -3.32766 | 6312 ft | 249 kts | 277° |
| 2026-05-05 10:45 | 55.69404 | -3.35810 | 6136 ft | 248 kts | 276° |
| 2026-05-05 10:45 | 55.69562 | -3.38850 | 5959 ft | 246 kts | 276° |
| 2026-05-05 10:45 | 55.69712 | -3.41848 | 5785 ft | 246 kts | 276° |
| 2026-05-05 10:46 | 55.69863 | -3.44877 | 5608 ft | 245 kts | 276° |
| 2026-05-05 10:46 | 55.70007 | -3.47865 | 5434 ft | 245 kts | 276° |
| 2026-05-05 10:46 | 55.70150 | -3.50899 | 5257 ft | 244 kts | 276° |
| 2026-05-05 10:46 | 55.70290 | -3.53882 | 5082 ft | 244 kts | 276° |
| 2026-05-05 10:47 | 55.70430 | -3.56868 | 4908 ft | 244 kts | 276° |
| 2026-05-05 10:47 | 55.70568 | -3.59865 | 4731 ft | 243 kts | 276° |
| 2026-05-05 10:47 | 55.70702 | -3.62848 | 4557 ft | 243 kts | 276° |
| 2026-05-05 10:47 | 55.70903 | -3.65813 | 4371 ft | 242 kts | 284° |
| 2026-05-05 10:48 | 55.71642 | -3.68409 | 4181 ft | 237 kts | 313° |
| 2026-05-05 10:48 | 55.73036 | -3.69923 | 4071 ft | 234 kts | 342° |
| 2026-05-05 10:48 | 55.74617 | -3.70533 | 4019 ft | 235 kts | 352° |
| 2026-05-05 10:48 | 55.76246 | -3.70891 | 3945 ft | 234 kts | 355° |
| 2026-05-05 10:49 | 55.77842 | -3.71166 | 3926 ft | 229 kts | 355° |
| 2026-05-05 10:49 | 55.79409 | -3.71413 | 3853 ft | 219 kts | 356° |
| 2026-05-05 10:49 | 55.80885 | -3.71407 | 3609 ft | 209 kts | 7° |
| 2026-05-05 10:49 | 55.82218 | -3.70567 | 3417 ft | 198 kts | 25° |
| 2026-05-05 10:50 | 55.83351 | -3.69278 | 3210 ft | 191 kts | 36° |
| 2026-05-05 10:50 | 55.84315 | -3.67698 | 3001 ft | 185 kts | 45° |
| 2026-05-05 10:50 | 55.85128 | -3.65983 | 2803 ft | 181 kts | 51° |
| 2026-05-05 10:50 | 55.85864 | -3.64156 | 2603 ft | 179 kts | 54° |
| 2026-05-05 10:51 | 55.86530 | -3.62329 | 2466 ft | 176 kts | 56° |
| 2026-05-05 10:51 | 55.87176 | -3.60463 | 2300 ft | 177 kts | 57° |
| 2026-05-05 10:51 | 55.87809 | -3.58596 | 2128 ft | 177 kts | 58° |
| 2026-05-05 10:51 | 55.88440 | -3.56716 | 1955 ft | 177 kts | 58° |
| 2026-05-05 10:52 | 55.89076 | -3.54830 | 1799 ft | 176 kts | 58° |
| 2026-05-05 10:52 | 55.89699 | -3.52981 | 1649 ft | 174 kts | 58° |
| 2026-05-05 10:52 | 55.90295 | -3.51219 | 1464 ft | 156 kts | 58° |
| 2026-05-05 10:52 | 55.90823 | -3.49648 | 1288 ft | 139 kts | 58° |
| 2026-05-05 10:53 | 55.91316 | -3.48191 | 1165 ft | 135 kts | 58° |
| 2026-05-05 10:53 | 55.91794 | -3.46780 | 1087 ft | 133 kts | 59° |
| 2026-05-05 10:53 | 55.92276 | -3.45350 | 977 ft | 136 kts | 59° |
| 2026-05-05 10:53 | 55.92762 | -3.43908 | 848 ft | 135 kts | 59° |
| 2026-05-05 10:54 | 55.93248 | -3.42465 | 624 ft | 137 kts | 59° |
| 2026-05-05 10:54 | 55.93728 | -3.41040 | 445 ft | 132 kts | 59° |
| 2026-05-05 10:54 | 55.94199 | -3.39638 | 292 ft | 130 kts | 59° |
| 2026-05-05 10:54 | 55.94658 | -3.38275 | 155 ft | 126 kts | 59° |
| 2026-05-05 10:55 | 55.95032 | -3.37165 | 150 ft | 70 kts | 59° |
| 2026-05-05 10:55 | 55.95215 | -3.36619 | 150 ft | 40 kts | 59° |
| 2026-05-05 10:55 | 55.95315 | -3.36322 | 150 ft | 20 kts | 59° |
| 2026-05-05 10:55 | 55.95384 | -3.36117 | 150 ft | 19 kts | 59° |
| 2026-05-05 10:56 | 55.95449 | -3.35922 | 150 ft | 18 kts | 59° |
| 2026-05-05 10:56 | 55.95510 | -3.35739 | 150 ft | 17 kts | 59° |
| 2026-05-05 10:56 | 55.95562 | -3.35568 | 150 ft | 15 kts | 76° |
| 2026-05-05 10:56 | 55.95531 | -3.35468 | 150 ft | 9 kts | 149° |
| 2026-05-05 10:57 | 55.95476 | -3.35409 | 150 ft | 10 kts | 152° |
| 2026-05-05 10:57 | 55.95423 | -3.35432 | 150 ft | 8 kts | 227° |
| 2026-05-05 10:57 | 55.95389 | -3.35528 | 150 ft | 10 kts | 239° |
| 2026-05-05 10:57 | 55.95363 | -3.35604 | 150 ft | 8 kts | 239° |
| 2026-05-05 10:58 | 55.95333 | -3.35694 | 150 ft | 9 kts | 239° |
| 2026-05-05 10:58 | 55.95298 | -3.35799 | 150 ft | 11 kts | 239° |
| 2026-05-05 10:58 | 55.95257 | -3.35921 | 150 ft | 12 kts | 239° |
| 2026-05-05 10:58 | 55.95212 | -3.36054 | 150 ft | 8 kts | 239° |
| 2026-05-05 10:59 | 55.95184 | -3.36137 | 150 ft | 8 kts | 239° |
| 2026-05-05 10:59 | 55.95151 | -3.36235 | 150 ft | 10 kts | 239° |
| 2026-05-05 10:59 | 55.95111 | -3.36351 | 150 ft | 12 kts | 239° |
| 2026-05-05 10:59 | 55.95067 | -3.36481 | 150 ft | 13 kts | 239° |
| 2026-05-05 11:00 | 55.95017 | -3.36630 | 150 ft | 15 kts | 239° |
| 2026-05-05 11:00 | 55.94967 | -3.36778 | 150 ft | 10 kts | 239° |
| 2026-05-05 11:00 | 55.94913 | -3.36816 | 150 ft | 9 kts | 154° |
| 2026-05-05 11:00 | 55.94861 | -3.36762 | 150 ft | 6 kts | 149° |
| 2026-05-05 11:01 | 55.94838 | -3.36716 | 150 ft | 4 kts | 110° |
| 2026-05-05 11:01 | 55.94838 | -3.36690 | 150 ft | 3 kts | 89° |
| 2026-05-05 11:01 | 55.94838 | -3.36651 | 150 ft | 3 kts | 89° |
| 2026-05-05 11:01 | 55.94838 | -3.36640 | 150 ft | 0 kts | 89° |